AF104 / F-GLZN 7700 Squawk Report (23rd of January, 2020)

Aircraft A343 Reg No. F-GLZN Age 21 years old
Model A340 Jet engines 4 First flight 04-11-98
Registered 26-06-19 Rollout 10-98 Delivered 30-11-98
Construction No. 245 Line No. N/A Series 313X
ADSHEX 392F2D Airline name Air France Owner N/A
Airfield based Paris-Charles de Gaulle~Val-d'Oise~F First tracked 2017-07-13 08:18:00

Flight history for F-GLZN

Route Flight No Date Playback
Charles De Gaulle (CDG) - Freetown Lungi (FNA) - Conakry (CKY) - Charles De Gaulle (CDG) AF596 2020-02-07 07:20:00
Charles De Gaulle (CDG) - Conakry (CKY) - Nouakchott (NKC) - Charles De Gaulle (CDG) AF748 2020-02-06 13:14:00
Charles De Gaulle (CDG) - Conakry (CKY) - Nouakchott (NKC) - Charles De Gaulle (CDG) AF748 2020-02-06 04:59:00
Charles De Gaulle (CDG) - Nouakchott (NKC) - Conakry (CKY) - Charles De Gaulle (CDG) AF751 2020-02-04 04:31:00
Princess Juliana Intl (SXM) - Charles De Gaulle (CDG) AF499 2020-02-03 13:22:00
Charles De Gaulle (CDG) - Princess Juliana Intl (SXM) AF498 2020-02-02 19:32:00
Ambouli International Airport (JIB) - Charles De Gaulle (CDG) AF669 2020-02-02 10:11:00
Charles De Gaulle (CDG) - Ambouli International Airport (JIB) AF668 2020-02-01 05:06:00
Charles De Gaulle (CDG) - Freetown Lungi (FNA) - Conakry (CKY) - Charles De Gaulle (CDG) AF596 2020-01-31 06:33:00
Charles De Gaulle (CDG) - Conakry (CKY) - Nouakchott (NKC) - Charles De Gaulle (CDG) AF748 2020-01-30 13:18:00
Charles De Gaulle (CDG) - Freetown Lungi (FNA) - Conakry (CKY) - Charles De Gaulle (CDG) AF596 2020-01-29 13:30:00
Charles De Gaulle (CDG) - Freetown Lungi (FNA) - Conakry (CKY) - Charles De Gaulle (CDG) AF596 2020-01-29 11:05:00
Charles De Gaulle (CDG) - Nouakchott (NKC) - Conakry (CKY) - Charles De Gaulle (CDG) AF751 2020-01-28 13:12:00
Charles De Gaulle (CDG) - Nouakchott (NKC) - Conakry (CKY) - Charles De Gaulle (CDG) AF751 2020-01-28 05:18:00
???? N/A 2020-01-25 19:39:00
Charles De Gaulle (CDG) - Murtala Muhammed (LOS) AF104 2020-01-24 05:34:00
Murtala Muhammed (LOS) - Charles De Gaulle (CDG) AF149 2020-01-23 13:23:00
Charles De Gaulle (CDG) - Murtala Muhammed (LOS) AF104 2020-01-23 02:44:00
Charles De Gaulle (CDG) - Freetown Lungi (FNA) - Conakry (CKY) - Charles De Gaulle (CDG) AF596 2020-01-22 13:39:00
Charles De Gaulle (CDG) - Nouakchott (NKC) - Conakry (CKY) - Charles De Gaulle (CDG) AF751 2020-01-21 06:28:00
Time Lat Lon Altitude Heading Speed Vertical Rate
2020-01-23 15:17:45 GMT 48.996231 2.562913 -50 85 123 -192
2020-01-23 15:17:42 GMT 48.996090 2.560610 -50 85 123 -192
2020-01-23 15:17:35 GMT 48.995773 2.554321 -25 85 133 -768
2020-01-23 15:17:32 GMT 48.995590 2.551363 25 85 133 -832
2020-01-23 15:17:25 GMT 48.995270 2.544603 125 85 136 -768
2020-01-23 15:17:22 GMT 48.995132 2.541926 175 84 137 -768
2020-01-23 15:17:15 GMT 48.994766 2.535166 275 84 136 -832
2020-01-23 15:17:12 GMT 48.994583 2.532208 300 85 137 -704
2020-01-23 15:17:06 GMT 48.994080 2.521996 375 85 134 -576
2020-01-23 15:17:01 GMT 48.994080 2.521996 425 85 134 -704
2020-01-23 15:16:54 GMT 48.993759 2.515517 525 83 131 -832
2020-01-23 15:16:51 GMT 48.993530 2.512489 550 83 131 -704
2020-01-23 15:16:44 GMT 48.993065 2.505895 625 83 133 -960
2020-01-23 15:16:41 GMT 48.992924 2.503148 675 85 135 -896
2020-01-23 15:16:36 GMT 48.992752 2.498897 825 86 140 -896
2020-01-23 15:16:33 GMT 48.992645 2.495993 775 87 139 -832
2020-01-23 15:16:30 GMT 48.992554 2.492812 825 86 140 -896
2020-01-23 15:16:27 GMT 48.992413 2.489271 900 85 139 -960
2020-01-23 15:16:24 GMT 48.992226 2.485729 950 85 138 -704
2020-01-23 15:16:19 GMT 48.992088 2.482549 950 85 139 -704
2020-01-23 15:16:15 GMT 48.991669 2.473659 2,050 85 161 -768
2020-01-23 15:16:07 GMT 48.991150 2.466079 1,150 83 137 -768
2020-01-23 15:16:03 GMT 48.991150 2.466079 2,050 85 161 -768
2020-01-23 15:15:59 GMT 48.990875 2.462889 1,225 82 139 -960
2020-01-23 15:15:56 GMT 48.990643 2.459781 1,250 83 141 -768
2020-01-23 15:15:52 GMT 48.990273 2.454071 1,300 83 141 -768
2020-01-23 15:15:49 GMT 48.989868 2.447768 1,400 85 148 -960
2020-01-23 15:15:45 GMT 48.989868 2.447768 1,450 85 150 -896
2020-01-23 15:15:41 GMT 48.989666 2.443085 1,500 85 153 -1024
2020-01-23 15:15:36 GMT 48.989479 2.439326 1,575 85 155 -1024
2020-01-23 15:15:33 GMT 48.989246 2.435495 2,050 85 161 -768
2020-01-23 15:15:30 GMT 48.988998 2.430655 1,675 85 163 -768
2020-01-23 15:15:27 GMT 48.988632 2.422767 1,875 85 173 -960
2020-01-23 15:15:23 GMT 48.988503 2.420534 2,075 85 177 -1024
2020-01-23 15:15:20 GMT 48.988316 2.416053 1,875 85 167 -960
2020-01-23 15:15:16 GMT 48.988316 2.416053 2,275 86 173 -960
2020-01-23 15:15:13 GMT 48.988129 2.412439 1,925 85 168 -1088
2020-01-23 15:15:10 GMT 48.987946 2.407696 2,025 86 170 -768
2020-01-23 15:15:07 GMT 48.987850 2.405717 2,050 86 170 -768
2020-01-23 15:15:04 GMT 48.987671 2.401639 2,075 86 172 -832
2020-01-23 15:15:00 GMT 48.987442 2.397062 2,150 86 173 -1024
2020-01-23 15:14:57 GMT 48.987076 2.389315 2,200 85 173 -1088
2020-01-23 15:14:54 GMT 48.987076 2.389315 2,275 85 172 -1024
2020-01-23 15:14:50 GMT 48.986801 2.383329 2,275 85 172 -1024
2020-01-23 15:14:46 GMT 48.986595 2.379696 2,375 85 173 -960
2020-01-23 15:14:43 GMT 48.986160 2.372131 2,450 85 176 -896
2020-01-23 15:14:37 GMT 48.985710 2.363578 2,525 85 177 -1024
2020-01-23 15:14:34 GMT 48.985710 2.363578 2,575 85 177 -1088
2020-01-23 15:14:31 GMT 48.985523 2.359675 2,625 85 177 -1024
2020-01-23 15:14:28 GMT 48.985245 2.354327 2,700 85 177 -1024
2020-01-23 15:14:25 GMT 48.984879 2.348328 2,750 85 178 -1088
2020-01-23 15:14:21 GMT 48.984879 2.348328 2,950 83 180 -1088
2020-01-23 15:14:15 GMT 48.984219 2.337630 3,175 83 180 -1088
2020-01-23 15:14:12 GMT 48.984219 2.337630 2,950 83 180 -1088
2020-01-23 15:14:08 GMT 48.983429 2.326355 3,075 83 181 -1088
2020-01-23 15:14:03 GMT 48.983429 2.326355 3,175 84 182 -1024
2020-01-23 15:14:00 GMT 48.983185 2.323045 3,175 84 182 -1024
2020-01-23 15:13:57 GMT 48.982964 2.319199 3,200 84 182 -1024
2020-01-23 15:13:54 GMT 48.982727 2.315510 3,250 84 183 -832
2020-01-23 15:13:50 GMT 48.982311 2.309442 3,375 85 184 -704
2020-01-23 15:13:47 GMT 48.982132 2.306495 3,400 85 185 -704
2020-01-23 15:13:43 GMT 48.981812 2.300509 3,400 85 185 -704
2020-01-23 15:13:40 GMT 48.981583 2.296213 3,425 85 185 -896
2020-01-23 15:13:37 GMT 48.981285 2.290216 3,550 85 184 -896
2020-01-23 15:13:34 GMT 48.981216 2.288678 3,550 85 184 -896
2020-01-23 15:13:30 GMT 48.980915 2.283277 3,700 85 185 -832
2020-01-23 15:13:25 GMT 48.980541 2.276627 3,675 85 186 -896
2020-01-23 15:13:22 GMT 48.980171 2.270050 3,775 85 188 -1024
2020-01-23 15:13:16 GMT 48.979889 2.265063 3,850 85 188 -1216
2020-01-23 15:13:10 GMT 48.979431 2.256986 4,025 85 188 -1408
2020-01-23 15:13:05 GMT 48.978790 2.245507 4,125 85 187 -1472
2020-01-23 15:13:02 GMT 48.978699 2.243676 4,175 84 187 -1344
2020-01-23 15:12:54 GMT 48.978287 2.236704 4,300 85 187 -1280
2020-01-23 15:12:50 GMT 48.978012 2.231563 4,575 86 188 -1280
2020-01-23 15:12:47 GMT 48.977703 2.225960 4,475 86 189 -1152
2020-01-23 15:12:44 GMT 48.977608 2.223286 4,500 86 189 -1088
2020-01-23 15:12:40 GMT 48.977051 2.209167 4,675 86 189 -1344
2020-01-23 15:12:33 GMT 48.977051 2.209167 5,550 84 186 -384
2020-01-23 15:12:29 GMT 48.976818 2.203915 4,800 86 188 -1344
2020-01-23 15:12:26 GMT 48.976540 2.197266 4,925 86 188 -1280
2020-01-23 15:12:23 GMT 48.976456 2.196139 4,950 86 188 -1280
2020-01-23 15:12:19 GMT 48.976089 2.188603 5,075 85 188 -1088
2020-01-23 15:12:16 GMT 48.975815 2.182899 5,150 85 188 -1088
2020-01-23 15:12:13 GMT 48.975815 2.182899 5,200 84 188 -1024
2020-01-23 15:12:10 GMT 48.975540 2.178251 5,225 84 188 -1024
2020-01-23 15:12:07 GMT 48.975002 2.169149 5,275 85 189 -832
2020-01-23 15:12:04 GMT 48.975002 2.169149 5,325 85 189 -832
2020-01-23 15:11:58 GMT 48.974678 2.162933 5,350 84 189 -768
2020-01-23 15:11:55 GMT 48.974350 2.158039 5,425 84 188 -512
2020-01-23 15:11:50 GMT 48.973839 2.150212 5,475 84 187 -384
2020-01-23 15:11:47 GMT 48.973709 2.148250 5,475 84 187 -384
2020-01-23 15:11:43 GMT 48.973297 2.141982 5,500 84 186 -320
2020-01-23 15:11:40 GMT 48.973022 2.137897 5,525 84 186 -320
2020-01-23 15:11:37 GMT 48.972794 2.134798 5,525 84 186 -320
2020-01-23 15:11:34 GMT 48.972584 2.130842 5,550 85 186 -320
2020-01-23 15:11:29 GMT 48.972107 2.122615 5,575 85 186 -384
2020-01-23 15:11:24 GMT 48.971836 2.117904 5,625 84 186 -384
2020-01-23 15:11:20 GMT 48.971233 2.107423 5,650 85 187 -320
2020-01-23 15:11:17 GMT 48.970951 2.102292 5,650 85 188 -128
2020-01-23 15:11:13 GMT 48.970951 2.102292 5,650 85 191 64
2020-01-23 15:11:06 GMT 48.970486 2.093907 5,675 85 194 -320
2020-01-23 15:11:03 GMT 48.970184 2.088247 5,700 85 198 -448
2020-01-23 15:11:00 GMT 48.969975 2.084367 5,725 85 200 -320
2020-01-23 15:10:54 GMT 48.969360 2.073247 5,725 85 207 64
2020-01-23 15:10:48 GMT 48.969090 2.067959 5,725 85 213 -64
2020-01-23 15:10:45 GMT 48.968765 2.062033 5,750 84 216 -384
2020-01-23 15:10:41 GMT 48.968437 2.056106 5,800 85 218 -640
2020-01-23 15:10:36 GMT 48.968124 2.050993 5,775 85 220 -768
2020-01-23 15:10:32 GMT 48.967648 2.042951 5,875 84 226 -1024
2020-01-23 15:10:29 GMT 48.967392 2.038175 5,950 85 229 -1728
2020-01-23 15:10:26 GMT 48.967228 2.034928 6,000 84 229 -1792
2020-01-23 15:10:23 GMT 48.966854 2.028929 6,125 84 232 -1984
2020-01-23 15:10:17 GMT 48.965836 2.012752 6,450 84 233 -1792
2020-01-23 15:10:13 GMT 48.965561 2.007963 6,550 84 234 -1920
2020-01-23 15:10:06 GMT 48.965225 2.002403 6,800 85 235 -1984
2020-01-23 15:10:03 GMT 48.964828 1.994793 6,800 85 235 -1984
2020-01-23 15:10:00 GMT 48.964600 1.990990 6,875 85 236 -2048
2020-01-23 15:09:56 GMT 48.964050 1.979722 7,100 85 236 -2048
2020-01-23 15:09:53 GMT 48.964050 1.979722 7,175 84 238 -2048
2020-01-23 15:09:49 GMT 48.963642 1.973419 7,225 58 250 -768
2020-01-23 15:09:46 GMT 48.962997 1.966764 7,300 82 238 -1920
2020-01-23 15:09:43 GMT 48.961826 1.958891 7,500 75 242 -1792
2020-01-23 15:09:37 GMT 48.959362 1.947905 7,675 64 247 -1216
2020-01-23 15:09:31 GMT 48.957916 1.943172 7,700 65 246 -1216
2020-01-23 15:09:28 GMT 48.956497 1.939016 7,800 59 249 -896
2020-01-23 15:09:25 GMT 48.954941 1.935073 7,800 58 250 -768
2020-01-23 15:09:21 GMT 48.949818 1.922318 7,875 58 254 -512
2020-01-23 15:09:17 GMT 48.949818 1.922318 7,900 58 256 -448
2020-01-23 15:09:14 GMT 48.948166 1.918171 7,925 58 256 -448
2020-01-23 15:09:10 GMT 48.945580 1.911838 7,950 58 260 -256
2020-01-23 15:09:05 GMT 48.942883 1.905116 7,950 58 262 -128
2020-01-23 15:09:02 GMT 48.939697 1.897254 7,975 58 267 -384
2020-01-23 15:08:59 GMT 48.939056 1.895635 7,975 58 267 -448
2020-01-23 15:08:56 GMT 48.936447 1.889085 8,025 58 270 -704
2020-01-23 15:08:51 GMT 48.933151 1.880975 8,075 58 273 -832
2020-01-23 15:08:48 GMT 48.930634 1.874718 8,150 58 274 -960
2020-01-23 15:08:44 GMT 48.929214 1.871267 8,250 58 276 -1152
2020-01-23 15:08:41 GMT 48.926193 1.863802 8,275 58 276 -1216
2020-01-23 15:08:35 GMT 48.922714 1.855211 8,350 58 276 -1152
2020-01-23 15:08:32 GMT 48.920380 1.849436 8,450 58 276 -1216
2020-01-23 15:08:29 GMT 48.917885 1.843318 8,525 58 276 -1408
2020-01-23 15:08:25 GMT 48.914154 1.834013 8,625 58 276 -1472
2020-01-23 15:08:19 GMT 48.909458 1.822285 8,800 58 275 -1472
2020-01-23 15:08:15 GMT 48.909458 1.822285 8,825 58 275 -1408
2020-01-23 15:08:12 GMT 48.907642 1.817876 9,050 58 275 -1280
2020-01-23 15:08:07 GMT 48.903809 1.808307 9,025 58 275 -1216
2020-01-23 15:08:02 GMT 48.900703 1.800601 9,150 58 276 -832
2020-01-23 15:07:59 GMT 48.898865 1.795983 9,200 58 277 -640
2020-01-23 15:07:56 GMT 48.897213 1.791856 9,175 58 276 -704
2020-01-23 15:07:53 GMT 48.894375 1.784845 9,225 58 277 -576
2020-01-23 15:07:49 GMT 48.891403 1.777532 9,300 58 281 -768
2020-01-23 15:07:44 GMT 48.888885 1.771334 9,400 58 282 -1088
2020-01-23 15:07:41 GMT 48.886738 1.765908 9,450 58 282 -1088
2020-01-23 15:07:38 GMT 48.884739 1.760993 9,425 58 283 -1152
2020-01-23 15:07:35 GMT 48.881199 1.752175 9,475 58 283 -1152
2020-01-23 15:07:32 GMT 48.880920 1.751524 9,525 58 283 -1216
2020-01-23 15:07:28 GMT 48.877895 1.744369 9,725 53 284 -1344
2020-01-23 15:07:25 GMT 48.872074 1.732587 9,725 52 285 -1344
2020-01-23 15:07:22 GMT 48.872074 1.732587 9,825 46 284 -1344
2020-01-23 15:07:18 GMT 48.869339 1.728234 9,850 43 285 -1216
2020-01-23 15:07:13 GMT 48.865036 1.722670 9,925 26 284 0
2020-01-23 15:07:09 GMT 48.860825 1.718234 9,975 30 285 -512
2020-01-23 15:07:06 GMT 48.856339 1.714501 10,000 26 284 -64
2020-01-23 15:07:02 GMT 48.851944 1.711191 10,000 26 284 0
2020-01-23 15:06:59 GMT 48.847458 1.707811 10,000 26 284 0
2020-01-23 15:06:56 GMT 48.844608 1.705700 10,000 26 284 -64
2020-01-23 15:06:52 GMT 48.840134 1.702388 10,000 26 284 -64
2020-01-23 15:06:46 GMT 48.832691 1.696809 10,000 26 285 0
2020-01-23 15:06:42 GMT 48.828083 1.693412 10,000 26 286 0
2020-01-23 15:06:38 GMT 48.823196 1.689798 10,000 26 286 0
2020-01-23 15:06:35 GMT 48.820129 1.687528 10,000 26 285 0
2020-01-23 15:06:32 GMT 48.816074 1.684522 10,000 26 285 0
2020-01-23 15:06:26 GMT 48.808624 1.678957 10,000 26 285 0
2020-01-23 15:06:23 GMT 48.805225 1.676427 10,000 26 285 0
2020-01-23 15:06:18 GMT 48.796520 1.669994 10,000 26 287 0
2020-01-23 15:06:12 GMT 48.791748 1.666471 10,000 26 287 0
2020-01-23 15:06:07 GMT 48.787491 1.663272 10,000 26 287 0
2020-01-23 15:06:04 GMT 48.783920 1.660626 10,000 26 287 0
2020-01-23 15:06:01 GMT 48.779480 1.657386 10,000 26 287 0
2020-01-23 15:05:58 GMT 48.774628 1.653795 10,000 26 287 0
2020-01-23 15:05:55 GMT 48.772339 1.652104 10,000 26 287 0
2020-01-23 15:05:51 GMT 48.763748 1.645709 10,000 26 286 0
2020-01-23 15:05:48 GMT 48.760677 1.643396 10,000 26 286 0
2020-01-23 15:05:42 GMT 48.756409 1.640273 10,000 26 286 0
2020-01-23 15:05:39 GMT 48.751972 1.636963 10,000 26 286 0
2020-01-23 15:05:34 GMT 48.747208 1.633442 10,000 26 286 0
2020-01-23 15:05:31 GMT 48.743546 1.630695 10,000 26 287 0
2020-01-23 15:05:28 GMT 48.735214 1.624568 10,000 26 287 0
2020-01-23 15:05:20 GMT 48.730415 1.620989 10,000 26 287 0
2020-01-23 15:05:17 GMT 48.726971 1.618460 10,000 26 287 0
2020-01-23 15:05:14 GMT 48.723293 1.615713 10,000 26 286 -64
2020-01-23 15:05:10 GMT 48.718552 1.612173 10,000 26 285 -64
2020-01-23 15:05:07 GMT 48.713928 1.608793 10,000 26 283 -64
2020-01-23 15:05:03 GMT 48.709469 1.605449 10,000 26 286 -128
2020-01-23 15:04:59 GMT 48.706146 1.603018 10,000 26 282 0
2020-01-23 15:04:55 GMT 48.701019 1.599215 10,000 26 282 0
2020-01-23 15:04:52 GMT 48.697357 1.596468 10,000 26 283 0
2020-01-23 15:04:49 GMT 48.689312 1.590560 10,000 26 286 -64
2020-01-23 15:04:46 GMT 48.689312 1.590560 10,025 26 287 -128
2020-01-23 15:04:43 GMT 48.682022 1.585130 10,125 26 293 -1216
2020-01-23 15:04:39 GMT 48.682022 1.585130 10,050 26 291 -448
2020-01-23 15:04:34 GMT 48.674973 1.579918 10,125 26 293 -1216
2020-01-23 15:04:30 GMT 48.667694 1.574496 10,200 26 293 -1216
2020-01-23 15:04:23 GMT 48.662659 1.570834 10,300 25 294 -960
2020-01-23 15:04:19 GMT 48.658539 1.567792 10,375 25 294 -896
2020-01-23 15:04:16 GMT 48.654491 1.564829 10,425 25 295 -896
2020-01-23 15:04:13 GMT 48.650673 1.562010 10,450 25 296 -832
2020-01-23 15:04:09 GMT 48.644714 1.557664 10,525 25 297 -832
2020-01-23 15:04:02 GMT 48.633133 1.549143 10,625 25 302 -576
2020-01-23 15:03:59 GMT 48.633133 1.549143 10,625 25 302 -576
2020-01-23 15:03:56 GMT 48.628841 1.545964 10,650 25 305 -576
2020-01-23 15:03:52 GMT 48.623253 1.541917 10,675 25 304 -576
2020-01-23 15:03:49 GMT 48.615829 1.536466 10,750 25 308 -512
2020-01-23 15:03:45 GMT 48.615829 1.536466 10,750 25 309 -512
2020-01-23 15:03:42 GMT 48.610031 1.532231 10,775 25 312 -512
2020-01-23 15:03:39 GMT 48.607193 1.530135 10,800 25 313 -512
2020-01-23 15:03:36 GMT 48.600266 1.525057 10,850 26 316 -576
2020-01-23 15:03:30 GMT 48.590061 1.517487 10,925 26 320 -576
2020-01-23 15:03:27 GMT 48.580936 1.510765 11,000 26 321 -576
2020-01-23 15:03:19 GMT 48.577538 1.508379 11,050 24 324 -1088
2020-01-23 15:03:11 GMT 48.570923 1.504141 11,125 22 326 -1472
2020-01-23 15:03:07 GMT 48.564423 1.500338 11,450 19 326 -1664
2020-01-23 15:03:03 GMT 48.559059 1.497393 11,400 19 327 -1600
2020-01-23 15:03:00 GMT 48.552475 1.493859 11,700 19 327 -1472
2020-01-23 15:02:57 GMT 48.550232 1.492662 11,575 19 327 -1280
2020-01-23 15:02:54 GMT 48.541077 1.487732 11,675 19 329 -960
2020-01-23 15:02:51 GMT 48.538055 1.486112 11,700 19 330 -960
2020-01-23 15:02:45 GMT 48.525539 1.479324 11,775 19 331 -960
2020-01-23 15:02:40 GMT 48.525539 1.479324 11,825 19 333 -896
2020-01-23 15:02:37 GMT 48.520157 1.476464 11,900 19 335 -1024
2020-01-23 15:02:32 GMT 48.514320 1.473324 11,975 19 335 -1408
2020-01-23 15:02:29 GMT 48.508595 1.470216 12,275 19 335 -1536
2020-01-23 15:02:23 GMT 48.501427 1.466386 12,225 19 336 -1536
2020-01-23 15:02:20 GMT 48.496307 1.463639 12,325 19 335 -1664
2020-01-23 15:02:16 GMT 48.489578 1.460055 12,425 19 335 -1536
2020-01-23 15:02:10 GMT 48.476532 1.453012 12,600 19 336 -1216
2020-01-23 15:02:03 GMT 48.471680 1.450407 12,700 19 338 -1216
2020-01-23 15:02:00 GMT 48.466091 1.447449 12,775 19 338 -1280
2020-01-23 15:01:56 GMT 48.460190 1.444280 12,825 19 338 -1344
2020-01-23 15:01:50 GMT 48.452080 1.439932 13,000 19 340 -1280
2020-01-23 15:01:46 GMT 48.446587 1.436968 13,050 19 341 -1600
2020-01-23 15:01:43 GMT 48.439453 1.433082 13,250 19 341 -1728
2020-01-23 15:01:37 GMT 48.426849 1.426271 13,475 19 339 -1920
2020-01-23 15:01:33 GMT 48.426849 1.426271 13,525 19 338 -1792
2020-01-23 15:01:30 GMT 48.422565 1.424031 13,575 19 339 -1536
2020-01-23 15:01:27 GMT 48.419312 1.422237 13,625 19 339 -1536
2020-01-23 15:01:21 GMT 48.409241 1.416884 13,775 19 341 -896
2020-01-23 15:01:18 GMT 48.404224 1.414128 13,850 19 346 -640
2020-01-23 15:01:13 GMT 48.396404 1.410008 13,925 19 346 -640
2020-01-23 15:01:09 GMT 48.390678 1.406901 13,925 19 350 -512
2020-01-23 15:01:05 GMT 48.385979 1.404443 14,000 19 351 -512
2020-01-23 15:01:01 GMT 48.377411 1.399889 14,000 19 354 -512
2020-01-23 15:00:57 GMT 48.367355 1.394489 14,025 19 357 -576
2020-01-23 15:00:50 GMT 48.358929 1.389987 14,100 19 361 -512
2020-01-23 15:00:45 GMT 48.355133 1.387939 14,150 19 366 -512
2020-01-23 15:00:42 GMT 48.349594 1.384982 14,150 19 375 -512
2020-01-23 15:00:37 GMT 48.340263 1.380085 14,200 19 372 -512
2020-01-23 15:00:33 GMT 48.335281 1.377411 14,275 19 376 -512
2020-01-23 15:00:30 GMT 48.329231 1.374158 14,250 19 375 -512
2020-01-23 15:00:27 GMT 48.324806 1.371845 14,300 19 377 -576
2020-01-23 15:00:24 GMT 48.320526 1.369558 14,300 19 377 -576
2020-01-23 15:00:20 GMT 48.313751 1.365967 14,400 19 381 -1408
2020-01-23 15:00:16 GMT 48.306278 1.361943 14,600 19 382 -2112
2020-01-23 15:00:09 GMT 48.295479 1.356161 14,750 19 382 -2240
2020-01-23 15:00:05 GMT 48.288666 1.352516 14,900 19 381 -2368
2020-01-23 15:00:00 GMT 48.272388 1.343874 15,450 19 379 -2496
2020-01-23 14:59:55 GMT 48.272388 1.343874 15,300 19 379 -2496
2020-01-23 14:59:52 GMT 48.261292 1.338008 15,575 19 379 -2240
2020-01-23 14:59:45 GMT 48.254196 1.334205 15,700 19 380 -1600
2020-01-23 14:59:39 GMT 48.245575 1.329635 15,975 19 384 -1600
2020-01-23 14:59:35 GMT 48.240234 1.326810 15,925 19 383 -1472
2020-01-23 14:59:32 GMT 48.233891 1.323419 16,075 19 384 -1664
2020-01-23 14:59:29 GMT 48.229004 1.320817 16,025 19 385 -1472
2020-01-23 14:59:25 GMT 48.221100 1.316599 16,225 19 388 -1216
2020-01-23 14:59:22 GMT 48.206818 1.309063 16,525 19 388 -1216
2020-01-23 14:59:17 GMT 48.206818 1.309063 16,350 19 392 -1664
2020-01-23 14:59:14 GMT 48.198303 1.304486 16,475 19 392 -2240
2020-01-23 14:59:11 GMT 48.193855 1.302169 16,750 19 390 -2432
2020-01-23 14:59:04 GMT 48.187527 1.298772 16,800 19 391 -2560
2020-01-23 14:59:01 GMT 48.181240 1.295447 16,950 19 391 -2496
2020-01-23 14:58:58 GMT 48.175934 1.292628 17,275 19 390 -2432
2020-01-23 14:58:55 GMT 48.172028 1.290612 17,275 19 390 -2432
2020-01-23 14:58:52 GMT 48.165550 1.287135 17,325 19 390 -2240
2020-01-23 14:58:47 GMT 48.152298 1.280182 17,575 19 390 -2240
2020-01-23 14:58:44 GMT 48.152298 1.280182 17,625 19 390 -2304
2020-01-23 14:58:38 GMT 48.142227 1.274826 17,925 19 389 -2752
2020-01-23 14:58:34 GMT 48.136642 1.271873 18,025 19 388 -2880
2020-01-23 14:58:29 GMT 48.127533 1.266998 18,275 19 387 -2880
2020-01-23 14:58:25 GMT 48.120621 1.263290 18,500 19 384 -2880
2020-01-23 14:58:21 GMT 48.109863 1.257660 18,800 19 384 -2368
2020-01-23 14:58:16 GMT 48.105499 1.255329 18,950 19 385 -1408
2020-01-23 14:58:13 GMT 48.100613 1.252794 18,950 19 386 -1216
2020-01-23 14:58:10 GMT 48.096237 1.250470 19,000 19 388 -960
2020-01-23 14:58:06 GMT 48.083668 1.243850 19,075 19 395 -448
2020-01-23 14:58:03 GMT 48.078140 1.240974 19,050 19 397 -704
2020-01-23 14:57:57 GMT 48.069607 1.236455 19,150 19 400 -1088
2020-01-23 14:57:54 GMT 48.061043 1.231948 20,825 19 406 -2176
2020-01-23 14:57:50 GMT 48.061043 1.231948 19,275 19 404 -2048
2020-01-23 14:57:43 GMT 48.048706 1.225456 19,525 19 404 -2368
2020-01-23 14:57:37 GMT 48.037113 1.219271 19,750 19 404 -2496
2020-01-23 14:57:34 GMT 48.030396 1.215775 19,925 19 404 -2624
2020-01-23 14:57:31 GMT 48.025803 1.213355 20,325 19 404 -2624
2020-01-23 14:57:27 GMT 48.020187 1.210350 20,175 19 403 -2432
2020-01-23 14:57:24 GMT 48.015060 1.207672 20,275 19 404 -2240
2020-01-23 14:57:20 GMT 48.002197 1.200943 20,725 19 405 -2240
2020-01-23 14:57:17 GMT 48.002197 1.200943 20,550 19 405 -2240
2020-01-23 14:57:13 GMT 47.993168 1.196172 20,825 19 406 -2176
2020-01-23 14:57:10 GMT 47.983810 1.191242 20,925 19 406 -2176
2020-01-23 14:57:03 GMT 47.976700 1.187553 21,075 19 407 -2176
2020-01-23 14:56:58 GMT 47.961048 1.179270 22,175 19 408 -2240
2020-01-23 14:56:53 GMT 47.961048 1.179270 21,600 19 408 -2560
2020-01-23 14:56:50 GMT 47.953041 1.175044 21,600 19 408 -2624
2020-01-23 14:56:46 GMT 47.947872 1.172368 21,725 19 408 -2624
2020-01-23 14:56:41 GMT 47.938065 1.167229 22,000 19 409 -2368
2020-01-23 14:56:34 GMT 47.927032 1.161392 22,100 19 409 -2304
2020-01-23 14:56:31 GMT 47.917923 1.156654 22,375 19 410 -2240
2020-01-23 14:56:27 GMT 47.913284 1.154198 22,475 19 410 -2240
2020-01-23 14:56:21 GMT 47.902679 1.148621 22,650 19 411 -2432
2020-01-23 14:56:18 GMT 47.897320 1.145818 22,825 19 411 -2368
2020-01-23 14:56:14 GMT 47.888847 1.141451 23,000 19 413 -1920
2020-01-23 14:56:10 GMT 47.880203 1.136948 23,125 19 415 -2048
2020-01-23 14:56:06 GMT 47.876404 1.134956 23,250 19 415 -2048
2020-01-23 14:56:01 GMT 47.866638 1.129831 23,400 19 415 -2048
2020-01-23 14:55:55 GMT 47.856865 1.124690 23,525 19 416 -2048
2020-01-23 14:55:51 GMT 47.848480 1.120262 24,825 19 418 -2368
2020-01-23 14:55:46 GMT 47.839172 1.115394 23,925 19 418 -2688
2020-01-23 14:55:40 GMT 47.829758 1.110443 24,225 19 416 -3008
2020-01-23 14:55:36 GMT 47.820831 1.105746 24,475 19 415 -2944
2020-01-23 14:55:31 GMT 47.810898 1.100555 24,725 19 414 -2432
2020-01-23 14:55:26 GMT 47.792389 1.090886 24,975 19 419 -768
2020-01-23 14:55:21 GMT 47.792389 1.090886 25,025 19 419 -768
2020-01-23 14:55:18 GMT 47.786865 1.087990 25,050 19 422 -384
2020-01-23 14:55:10 GMT 47.765717 1.076942 25,150 19 431 -1152
2020-01-23 14:55:06 GMT 47.765717 1.076942 25,175 19 431 -1280
2020-01-23 14:55:03 GMT 47.759895 1.073914 25,225 19 433 -1536
2020-01-23 14:55:00 GMT 47.754776 1.071304 25,300 19 433 -1728
2020-01-23 14:54:57 GMT 47.749840 1.068773 25,450 19 435 -2112
2020-01-23 14:54:53 GMT 47.742233 1.064850 25,525 19 436 -2560
2020-01-23 14:54:50 GMT 47.735783 1.061519 25,650 19 436 -2496
2020-01-23 14:54:43 GMT 47.722839 1.054828 26,175 19 436 -2624
2020-01-23 14:54:40 GMT 47.716003 1.051254 26,100 19 436 -2176
2020-01-23 14:54:35 GMT 47.707260 1.046654 26,250 19 438 -1984
2020-01-23 14:54:32 GMT 47.695980 1.040743 26,425 19 439 -2240
2020-01-23 14:54:25 GMT 47.687943 1.036560 26,625 19 439 -2496
2020-01-23 14:54:22 GMT 47.682201 1.033560 26,725 19 439 -2560
2020-01-23 14:54:19 GMT 47.676800 1.030743 26,875 19 439 -2496
2020-01-23 14:54:13 GMT 47.664928 1.024546 27,125 19 440 -2048
2020-01-23 14:54:09 GMT 47.657433 1.020672 27,350 19 442 -1792
2020-01-23 14:54:05 GMT 47.648170 1.015883 27,400 19 443 -1600
2020-01-23 14:54:01 GMT 47.640209 1.011799 27,525 19 446 -1344
2020-01-23 14:53:58 GMT 47.637085 1.010193 27,675 19 448 -1728
2020-01-23 14:53:55 GMT 47.630062 1.006517 27,675 19 449 -1856
2020-01-23 14:53:52 GMT 47.617119 0.999826 27,800 19 451 -1920
2020-01-23 14:53:44 GMT 47.607857 0.995037 28,000 19 452 -2112
2020-01-23 14:53:41 GMT 47.604134 0.993065 28,125 19 454 -1600
2020-01-23 14:53:38 GMT 47.596405 0.989122 28,250 19 454 -1472
2020-01-23 14:53:35 GMT 47.591629 0.986641 28,250 19 457 -1088
2020-01-23 14:53:30 GMT 47.579681 0.980461 28,300 19 460 -1216
2020-01-23 14:53:26 GMT 47.573639 0.977371 28,375 19 462 -1728
2020-01-23 14:53:21 GMT 47.562698 0.971741 28,550 19 464 -2240
2020-01-23 14:53:18 GMT 47.558258 0.969475 28,650 19 464 -2560
2020-01-23 14:53:11 GMT 47.542870 0.961515 29,275 19 463 -3200
2020-01-23 14:53:07 GMT 47.535004 0.957501 29,275 19 463 -3520
2020-01-23 14:53:03 GMT 47.527725 0.953682 29,500 19 459 -3008
2020-01-23 14:53:00 GMT 47.521317 0.950388 29,625 19 459 -2752
2020-01-23 14:52:57 GMT 47.514130 0.946678 29,675 19 458 -2432
2020-01-23 14:52:54 GMT 47.508316 0.943657 29,925 19 456 -1792
2020-01-23 14:52:51 GMT 47.500740 0.939754 29,950 19 456 -1344
2020-01-23 14:52:48 GMT 47.481049 0.929542 30,000 19 456 -64
2020-01-23 14:52:41 GMT 47.481049 0.929542 30,000 19 455 0
2020-01-23 14:52:38 GMT 47.475090 0.926514 30,000 19 457 64
2020-01-23 14:52:35 GMT 47.470734 0.924225 30,000 19 456 64
2020-01-23 14:52:31 GMT 47.461761 0.919624 30,000 19 457 64
2020-01-23 14:52:25 GMT 47.448788 0.912992 30,000 19 457 -64
2020-01-23 14:52:20 GMT 47.433426 0.905136 30,000 19 457 0
2020-01-23 14:52:16 GMT 47.433426 0.905136 30,000 19 457 0
2020-01-23 14:52:13 GMT 47.428024 0.902358 30,000 19 457 -64
2020-01-23 14:52:10 GMT 47.420288 0.898407 30,000 19 456 0
2020-01-23 14:52:07 GMT 47.416306 0.896347 30,000 19 456 0
2020-01-23 14:52:04 GMT 47.409119 0.892639 30,000 19 456 0
2020-01-23 14:52:00 GMT 47.399582 0.887709 30,000 19 455 0
2020-01-23 14:51:56 GMT 47.392822 0.884262 30,000 19 456 0
2020-01-23 14:51:53 GMT 47.384872 0.880174 30,000 19 455 0
2020-01-23 14:51:50 GMT 47.371536 0.873344 30,000 19 455 0
2020-01-23 14:51:46 GMT 47.368378 0.871696 30,000 19 455 0
2020-01-23 14:51:43 GMT 47.368378 0.871696 30,000 19 455 -64
2020-01-23 14:51:38 GMT 47.355450 0.865103 30,000 19 455 0
2020-01-23 14:51:33 GMT 47.348511 0.861534 30,000 19 455 -64
2020-01-23 14:51:30 GMT 47.339767 0.857071 30,000 19 454 64
2020-01-23 14:51:27 GMT 47.327087 0.850548 30,000 19 454 0
2020-01-23 14:51:23 GMT 47.327087 0.850548 30,000 19 454 0
2020-01-23 14:51:19 GMT 47.319931 0.846933 30,000 19 454 -64
2020-01-23 14:51:16 GMT 47.305298 0.839424 30,000 19 453 0
2020-01-23 14:51:12 GMT 47.299576 0.836472 30,000 19 453 -192
2020-01-23 14:51:09 GMT 47.299576 0.836472 30,000 19 453 -256
2020-01-23 14:51:04 GMT 47.281540 0.827271 30,000 19 453 -384
2020-01-23 14:51:01 GMT 47.281540 0.827271 30,025 19 453 -64
2020-01-23 14:50:57 GMT 47.266937 0.819786 30,000 19 452 0
2020-01-23 14:50:52 GMT 47.266937 0.819786 30,000 19 452 -64
2020-01-23 14:50:47 GMT 47.256664 0.814538 30,000 19 452 64
2020-01-23 14:50:44 GMT 47.250778 0.811546 30,000 19 452 64
2020-01-23 14:50:40 GMT 47.242264 0.807220 30,000 19 451 64
2020-01-23 14:50:36 GMT 47.234573 0.803307 30,000 19 451 0
2020-01-23 14:50:33 GMT 47.227852 0.799889 30,000 19 451 -64
2020-01-23 14:50:26 GMT 47.214817 0.793199 30,000 19 451 0
2020-01-23 14:50:22 GMT 47.207928 0.789678 30,000 19 452 0
2020-01-23 14:50:19 GMT 47.199036 0.785170 30,000 19 451 0
2020-01-23 14:50:15 GMT 47.192146 0.781649 30,000 19 451 0
2020-01-23 14:50:11 GMT 47.185822 0.778450 30,000 19 451 0
2020-01-23 14:50:05 GMT 47.173012 0.771930 30,000 19 451 -64
2020-01-23 14:50:01 GMT 47.165703 0.768198 30,000 19 450 0
2020-01-23 14:49:58 GMT 47.159409 0.764992 30,000 19 450 64
2020-01-23 14:49:55 GMT 47.146198 0.758338 30,000 19 450 64
2020-01-23 14:49:51 GMT 47.139729 0.755028 30,000 19 450 0
2020-01-23 14:49:48 GMT 47.139729 0.755028 30,000 19 450 0
2020-01-23 14:49:45 GMT 47.129471 0.749817 30,000 19 450 0
2020-01-23 14:49:42 GMT 47.129471 0.749817 30,000 19 450 0
2020-01-23 14:49:39 GMT 47.122410 0.746225 30,000 19 450 0
2020-01-23 14:49:36 GMT 47.115147 0.742493 30,000 19 450 0
2020-01-23 14:49:33 GMT 47.110016 0.739929 30,000 19 449 0
2020-01-23 14:49:30 GMT 47.103149 0.736427 30,000 19 449 0
2020-01-23 14:49:25 GMT 47.092529 0.731071 30,000 19 449 0
2020-01-23 14:49:22 GMT 47.088593 0.729080 30,000 19 450 0
2020-01-23 14:49:18 GMT 47.081909 0.725661 30,000 19 449 -64
2020-01-23 14:49:15 GMT 47.068176 0.718689 30,000 19 449 0
2020-01-23 14:49:11 GMT 47.060493 0.714816 30,000 19 449 0
2020-01-23 14:49:08 GMT 47.060493 0.714816 30,000 19 449 0
2020-01-23 14:49:04 GMT 47.054626 0.711845 30,000 19 449 0
2020-01-23 14:49:01 GMT 47.048538 0.708755 30,000 19 449 0
2020-01-23 14:48:57 GMT 47.040104 0.704463 30,000 19 450 0
2020-01-23 14:48:54 GMT 47.034985 0.701857 30,000 19 449 0
2020-01-23 14:48:51 GMT 47.028122 0.698318 30,000 19 450 -64
2020-01-23 14:48:47 GMT 47.020477 0.694336 30,000 19 450 0
2020-01-23 14:48:41 GMT 47.008713 0.688293 30,000 19 450 0
2020-01-23 14:48:38 GMT 47.002213 0.685026 30,000 18 451 0
2020-01-23 14:48:34 GMT 46.995602 0.681997 30,000 16 453 0
2020-01-23 14:48:30 GMT 46.987175 0.678265 30,000 16 453 0
2020-01-23 14:48:27 GMT 46.980331 0.675453 30,000 15 454 64
2020-01-23 14:48:23 GMT 46.973831 0.672775 30,000 15 455 0
2020-01-23 14:48:20 GMT 46.966785 0.669884 30,000 15 454 0
2020-01-23 14:48:17 GMT 46.960098 0.667145 30,000 15 454 0
2020-01-23 14:48:14 GMT 46.954403 0.664814 30,000 15 454 0
2020-01-23 14:48:10 GMT 46.943710 0.660416 30,000 15 453 0
2020-01-23 14:48:07 GMT 46.940872 0.659248 30,000 15 454 64
2020-01-23 14:48:03 GMT 46.932175 0.655678 30,000 15 454 64
2020-01-23 14:48:00 GMT 46.925678 0.652982 30,000 15 454 0
2020-01-23 14:47:57 GMT 46.919022 0.650236 30,000 15 454 64
2020-01-23 14:47:53 GMT 46.912739 0.647700 30,000 15 454 0
2020-01-23 14:47:48 GMT 46.901459 0.642975 30,000 15 454 0
2020-01-23 14:47:44 GMT 46.892349 0.639267 30,000 15 453 -64
2020-01-23 14:47:40 GMT 46.882851 0.635376 30,000 15 454 64
2020-01-23 14:47:36 GMT 46.871910 0.630869 30,000 15 453 0
2020-01-23 14:47:29 GMT 46.864044 0.627663 30,000 15 453 0
2020-01-23 14:47:26 GMT 46.856968 0.624710 30,000 15 453 -64
2020-01-23 14:47:23 GMT 46.851521 0.622513 30,000 15 453 -64
2020-01-23 14:47:19 GMT 46.841049 0.618187 30,000 15 453 -64
2020-01-23 14:47:15 GMT 46.836205 0.616196 30,000 15 453 -64
2020-01-23 14:47:12 GMT 46.828125 0.612890 30,000 15 453 64
2020-01-23 14:47:09 GMT 46.816608 0.608162 30,000 15 453 0
2020-01-23 14:47:06 GMT 46.816608 0.608162 30,000 15 453 0
2020-01-23 14:47:03 GMT 46.810593 0.605722 30,000 15 453 64
2020-01-23 14:46:59 GMT 46.802078 0.602238 30,000 15 453 64
2020-01-23 14:46:54 GMT 46.793610 0.598755 30,000 15 454 0
2020-01-23 14:46:51 GMT 46.785744 0.595528 30,000 15 454 64
2020-01-23 14:46:48 GMT 46.778667 0.592644 30,000 15 454 64
2020-01-23 14:46:44 GMT 46.763901 0.586630 30,000 15 453 -64
2020-01-23 14:46:41 GMT 46.763901 0.586630 30,000 15 453 0
2020-01-23 14:46:35 GMT 46.754227 0.582619 30,000 15 453 64
2020-01-23 14:46:32 GMT 46.748779 0.580421 30,000 15 451 -192
2020-01-23 14:46:28 GMT 46.740543 0.576988 30,000 15 451 -192
2020-01-23 14:46:25 GMT 46.734722 0.574585 30,025 15 450 -256
2020-01-23 14:46:22 GMT 46.728333 0.571959 30,050 15 449 -320
2020-01-23 14:46:19 GMT 46.721546 0.569160 30,075 15 448 -512
2020-01-23 14:46:15 GMT 46.714565 0.566277 30,100 15 447 -704
2020-01-23 14:46:11 GMT 46.707413 0.563317 30,150 15 447 -896
2020-01-23 14:46:07 GMT 46.698227 0.559547 30,200 15 450 -960
2020-01-23 14:46:04 GMT 46.691803 0.556953 30,250 15 449 -960
2020-01-23 14:46:00 GMT 46.683975 0.553805 30,325 15 453 -1088
2020-01-23 14:45:57 GMT 46.677929 0.551308 30,425 15 456 -896
2020-01-23 14:45:52 GMT 46.666569 0.546707 30,450 15 458 -960
2020-01-23 14:45:48 GMT 46.659210 0.543756 30,550 15 466 -960
2020-01-23 14:45:45 GMT 46.652435 0.541077 30,600 15 461 -1024
2020-01-23 14:45:41 GMT 46.638428 0.535383 30,675 15 464 -960
2020-01-23 14:45:34 GMT 46.625000 0.529884 30,750 15 465 -960
2020-01-23 14:45:31 GMT 46.625000 0.529884 30,800 15 466 -960
2020-01-23 14:45:28 GMT 46.611099 0.524195 30,875 15 466 -1024
2020-01-23 14:45:25 GMT 46.611099 0.524195 31,000 15 469 -1024
2020-01-23 14:45:19 GMT 46.599426 0.519372 31,000 15 468 -960
2020-01-23 14:45:16 GMT 46.594437 0.517362 31,025 15 468 -960
2020-01-23 14:45:13 GMT 46.587570 0.514549 31,075 15 469 -1024
2020-01-23 14:45:08 GMT 46.576912 0.510178 31,125 15 469 -960
2020-01-23 14:45:04 GMT 46.556847 0.502075 31,375 15 469 -960
2020-01-23 14:44:58 GMT 46.547676 0.498436 31,375 15 469 -1024
2020-01-23 14:44:54 GMT 46.547676 0.498436 31,375 15 469 -1024
2020-01-23 14:44:51 GMT 46.536133 0.493904 31,525 15 470 -960
2020-01-23 14:44:44 GMT 46.526505 0.490097 31,575 15 469 -960
2020-01-23 14:44:38 GMT 46.514156 0.485252 31,700 15 471 -960
2020-01-23 14:44:34 GMT 46.505547 0.481888 31,750 15 472 -960
2020-01-23 14:44:30 GMT 46.497940 0.478910 31,775 15 473 -1024
2020-01-23 14:44:27 GMT 46.491394 0.476365 31,825 15 474 -1024
2020-01-23 14:44:24 GMT 46.483341 0.473167 31,875 15 476 -960
2020-01-23 14:44:20 GMT 46.475891 0.470284 31,950 15 477 -960
2020-01-23 14:44:17 GMT 46.469513 0.467790 32,000 15 478 -960
2020-01-23 14:44:14 GMT 46.464626 0.465889 32,025 15 478 -960
2020-01-23 14:44:10 GMT 46.454338 0.461838 32,775 15 479 -960
2020-01-23 14:44:07 GMT 46.439816 0.456139 32,150 15 479 -1024
2020-01-23 14:44:03 GMT 46.439816 0.456139 32,200 15 479 -960
2020-01-23 14:43:57 GMT 46.427399 0.451243 32,300 15 479 -1024
2020-01-23 14:43:53 GMT 46.419704 0.448242 32,350 15 479 -1024
2020-01-23 14:43:50 GMT 46.411102 0.444879 32,475 15 479 -960
2020-01-23 14:43:47 GMT 46.405334 0.442602 32,500 15 478 -960
2020-01-23 14:43:43 GMT 46.395767 0.438850 32,575 15 478 -960
2020-01-23 14:43:39 GMT 46.389351 0.436363 32,625 15 477 -960
2020-01-23 14:43:36 GMT 46.383579 0.434166 32,650 15 477 -960
2020-01-23 14:43:32 GMT 46.373154 0.430075 32,700 15 477 -960
2020-01-23 14:43:29 GMT 46.361233 0.425377 32,800 15 477 -960
2020-01-23 14:43:26 GMT 46.351875 0.421738 32,850 15 476 -1024
2020-01-23 14:43:22 GMT 46.351875 0.421738 32,900 15 476 -1024
2020-01-23 14:43:18 GMT 46.342754 0.418167 32,975 15 476 -1024
2020-01-23 14:43:15 GMT 46.337864 0.416245 32,975 15 473 -960
2020-01-23 14:43:12 GMT 46.330650 0.413361 33,075 15 474 -960
2020-01-23 14:43:08 GMT 46.322159 0.410045 33,150 15 473 -960
2020-01-23 14:43:05 GMT 46.316483 0.407834 33,175 15 473 -960
2020-01-23 14:43:01 GMT 46.307186 0.404160 33,250 15 472 -960
2020-01-23 14:42:58 GMT 46.301086 0.401756 33,325 15 473 -960
2020-01-23 14:42:55 GMT 46.295151 0.399460 33,350 15 473 -1024
2020-01-23 14:42:49 GMT 46.281025 0.393997 33,550 15 476 -960
2020-01-23 14:42:45 GMT 46.273361 0.391019 33,500 15 475 -960
2020-01-23 14:42:40 GMT 46.258072 0.385124 33,625 15 476 -960
2020-01-23 14:42:34 GMT 46.251698 0.382668 33,650 15 476 -960
2020-01-23 14:42:31 GMT 46.244247 0.379784 33,725 15 477 -960
2020-01-23 14:42:28 GMT 46.231865 0.374977 33,825 15 478 -960
2020-01-23 14:42:25 GMT 46.221855 0.371063 33,850 15 478 -960
2020-01-23 14:42:21 GMT 46.221855 0.371063 33,900 15 479 -960
2020-01-23 14:42:17 GMT 46.211380 0.367037 33,975 15 479 -960
2020-01-23 14:42:13 GMT 46.199203 0.362281 34,075 15 478 -960
2020-01-23 14:42:10 GMT 46.199203 0.362281 34,175 15 478 -1024
2020-01-23 14:42:07 GMT 46.193848 0.360204 34,125 15 478 -960
2020-01-23 14:42:03 GMT 46.185104 0.356788 34,175 15 478 -960
2020-01-23 14:41:58 GMT 46.171875 0.351696 34,275 15 478 -960
2020-01-23 14:41:54 GMT 46.163757 0.348541 34,350 15 478 -1024
2020-01-23 14:41:51 GMT 46.159477 0.346893 34,375 15 477 -960
2020-01-23 14:41:47 GMT 46.150539 0.343391 34,450 15 476 -960
2020-01-23 14:41:40 GMT 46.129349 0.335083 34,625 15 473 -960
2020-01-23 14:41:34 GMT 46.122608 0.332474 34,675 15 472 -1024
2020-01-23 14:41:30 GMT 46.114609 0.329322 34,750 15 469 -960
2020-01-23 14:41:27 GMT 46.107697 0.326642 34,800 15 469 -960
2020-01-23 14:41:23 GMT 46.099503 0.323494 34,925 15 468 -960
2020-01-23 14:41:20 GMT 46.086823 0.318604 34,925 15 466 -960
2020-01-23 14:41:17 GMT 46.086823 0.318604 34,950 15 466 -1024
2020-01-23 14:41:14 GMT 46.079498 0.315790 35,575 15 469 -960
2020-01-23 14:41:11 GMT 46.074520 0.313866 35,075 15 469 -960
2020-01-23 14:41:08 GMT 46.069061 0.311771 35,125 15 469 -960
2020-01-23 14:41:04 GMT 46.058598 0.307686 35,300 15 469 -960
2020-01-23 14:41:00 GMT 46.051289 0.304871 35,250 15 470 -960
2020-01-23 14:40:57 GMT 46.042694 0.301454 35,275 15 470 -1024
2020-01-23 14:40:53 GMT 46.037018 0.299243 35,325 15 471 -960
2020-01-23 14:40:50 GMT 46.030289 0.296564 35,375 14 473 -1024
2020-01-23 14:40:46 GMT 46.022053 0.293541 35,450 13 474 -960
2020-01-23 14:40:42 GMT 46.010696 0.289764 35,525 9 479 -1024
2020-01-23 14:40:37 GMT 46.003109 0.287567 35,575 11 477 -1024
2020-01-23 14:40:33 GMT 45.995270 0.285578 35,650 7 482 -960
2020-01-23 14:40:30 GMT 45.987122 0.283836 35,725 7 482 -960
2020-01-23 14:40:26 GMT 45.970230 0.281290 35,950 2 487 -960
2020-01-23 14:40:23 GMT 45.970230 0.281290 35,875 1 487 -896
2020-01-23 14:40:19 GMT 45.963730 0.280754 35,900 2 487 -960
2020-01-23 14:40:16 GMT 45.955669 0.280426 35,925 1 487 -960
2020-01-23 14:40:12 GMT 45.947571 0.280220 36,000 1 486 -192
2020-01-23 14:40:09 GMT 45.940613 0.280017 36,000 1 486 -64
2020-01-23 14:40:05 GMT 45.932739 0.279749 36,000 1 486 -64
2020-01-23 14:40:02 GMT 45.924911 0.279481 36,000 1 485 0
2020-01-23 14:39:59 GMT 45.917953 0.279280 36,000 1 485 0
2020-01-23 14:39:56 GMT 45.894379 0.278611 36,000 1 486 0
2020-01-23 14:39:48 GMT 45.894379 0.278611 36,000 1 486 0
2020-01-23 14:39:45 GMT 45.886963 0.278410 36,000 1 486 -64
2020-01-23 14:39:41 GMT 45.877090 0.278091 36,000 1 486 0
2020-01-23 14:39:37 GMT 45.867004 0.277807 36,000 1 486 0
2020-01-23 14:39:34 GMT 45.861603 0.277673 36,000 1 488 64
2020-01-23 14:39:30 GMT 45.853729 0.277405 36,000 1 488 64
2020-01-23 14:39:25 GMT 45.840919 0.277061 36,000 1 488 0
2020-01-23 14:39:21 GMT 45.824936 0.276601 36,000 1 488 0
2020-01-23 14:39:17 GMT 45.818157 0.276443 36,000 1 488 0
2020-01-23 14:39:07 GMT 45.802597 0.275998 36,000 1 489 64
2020-01-23 14:39:03 GMT 45.793575 0.275757 36,000 1 489 0
2020-01-23 14:38:59 GMT 45.783848 0.275482 36,000 1 489 0
2020-01-23 14:38:54 GMT 45.771423 0.275127 36,000 1 490 0
2020-01-23 14:38:50 GMT 45.762589 0.274859 36,000 1 490 0
2020-01-23 14:38:46 GMT 45.754669 0.274658 36,000 1 490 0
2020-01-23 14:38:43 GMT 45.739483 0.274178 36,000 1 489 0
2020-01-23 14:38:40 GMT 45.739483 0.274178 36,000 1 489 0
2020-01-23 14:38:35 GMT 45.722771 0.273697 36,000 1 489 0
2020-01-23 14:38:26 GMT 45.709225 0.273285 36,000 1 489 0
2020-01-23 14:38:23 GMT 45.702660 0.273079 36,000 1 489 0
2020-01-23 14:38:19 GMT 45.693604 0.272849 36,000 1 489 -64
2020-01-23 14:38:13 GMT 45.680511 0.272448 36,025 1 489 -64
2020-01-23 14:38:10 GMT 45.673965 0.272247 36,000 1 489 0
2020-01-23 14:38:05 GMT 45.654236 0.271711 36,000 1 492 64
2020-01-23 14:37:57 GMT 45.639908 0.271309 36,000 1 494 -64
2020-01-23 14:37:54 GMT 45.635559 0.271175 36,000 1 494 -64
2020-01-23 14:37:51 GMT 45.630318 0.271019 36,000 1 495 -64
2020-01-23 14:37:44 GMT 45.614304 0.270607 36,000 1 496 64
2020-01-23 14:37:41 GMT 45.605831 0.270401 36,000 1 499 0
2020-01-23 14:37:35 GMT 45.593403 0.270058 36,000 1 499 0
2020-01-23 14:37:31 GMT 45.567307 0.269366 36,000 1 501 0
2020-01-23 14:37:21 GMT 45.561092 0.269165 36,000 1 500 0
2020-01-23 14:37:18 GMT 45.554169 0.269031 36,000 1 500 0
2020-01-23 14:37:12 GMT 45.540520 0.268629 36,000 1 501 0
2020-01-23 14:37:09 GMT 45.533348 0.268361 36,000 1 501 0
2020-01-23 14:37:02 GMT 45.517365 0.267923 36,000 1 501 0
2020-01-23 14:36:52 GMT 45.493057 0.267203 36,000 1 501 0
2020-01-23 14:36:47 GMT 45.481705 0.266942 36,000 1 501 0
2020-01-23 14:36:42 GMT 45.469898 0.266619 36,000 1 501 0
2020-01-23 14:36:37 GMT 45.458817 0.266288 36,000 1 500 0
2020-01-23 14:36:32 GMT 45.438217 0.265699 36,000 1 500 64
2020-01-23 14:36:28 GMT 45.438217 0.265699 36,000 1 500 0
2020-01-23 14:36:24 GMT 45.427826 0.265372 36,000 1 499 0
2020-01-23 14:36:17 GMT 45.412582 0.264914 36,000 1 499 0
2020-01-23 14:36:12 GMT 45.398533 0.264543 36,000 1 499 0
2020-01-23 14:36:07 GMT 45.389740 0.264326 36,000 1 499 0
2020-01-23 14:36:03 GMT 45.380310 0.264064 36,000 1 498 0
2020-01-23 14:35:57 GMT 45.366486 0.263672 36,000 1 497 0
2020-01-23 14:35:50 GMT 45.350876 0.263214 36,000 1 498 -64
2020-01-23 14:35:47 GMT 45.344193 0.263018 36,000 1 497 0
2020-01-23 14:35:44 GMT 45.328125 0.262560 36,000 1 497 64
2020-01-23 14:35:40 GMT 45.328125 0.262560 36,000 1 494 0
2020-01-23 14:35:35 GMT 45.315765 0.262233 36,000 1 496 0
2020-01-23 14:35:30 GMT 45.304314 0.261930 36,000 1 495 -64
2020-01-23 14:35:27 GMT 45.288715 0.261461 36,000 1 495 64
2020-01-23 14:35:19 GMT 45.280060 0.261252 36,000 1 495 64
2020-01-23 14:35:14 GMT 45.253525 0.260523 36,000 1 495 -64
2020-01-23 14:35:09 GMT 45.253525 0.260523 36,000 1 494 0
2020-01-23 14:35:05 GMT 45.247604 0.260337 36,000 1 494 64
2020-01-23 14:34:59 GMT 45.233002 0.259944 36,000 1 494 0
2020-01-23 14:34:56 GMT 45.226364 0.259748 36,000 1 494 0
2020-01-23 14:34:50 GMT 45.213135 0.259356 36,000 1 494 0
2020-01-23 14:34:45 GMT 45.201508 0.258963 36,000 1 493 0
2020-01-23 14:34:39 GMT 45.186264 0.258571 36,000 1 493 0
2020-01-23 14:34:35 GMT 45.178295 0.258380 36,000 1 493 0
2020-01-23 14:34:31 GMT 45.162560 0.257911 36,000 1 493 0
2020-01-23 14:34:28 GMT 45.162560 0.257911 36,000 1 493 0
2020-01-23 14:34:25 GMT 45.155483 0.257710 36,000 1 493 -64
2020-01-23 14:34:20 GMT 45.144791 0.257394 36,000 1 493 0
2020-01-23 14:34:17 GMT 45.137741 0.257198 36,000 1 493 0
2020-01-23 14:34:14 GMT 45.132069 0.257040 36,000 1 493 -64
2020-01-23 14:34:08 GMT 45.117962 0.256638 36,000 1 493 0
2020-01-23 14:34:04 GMT 45.107941 0.256413 36,000 1 493 0
2020-01-23 14:33:59 GMT 45.094711 0.256021 36,000 1 493 -64
2020-01-23 14:33:56 GMT 45.091049 0.255955 36,000 1 493 -64
2020-01-23 14:33:52 GMT 45.081711 0.255694 36,000 1 493 -64
2020-01-23 14:33:46 GMT 45.068291 0.255298 36,000 1 493 -64
2020-01-23 14:33:43 GMT 45.061020 0.255105 36,000 1 493 0
2020-01-23 14:33:37 GMT 45.043900 0.254582 36,000 1 493 0
2020-01-23 14:33:33 GMT 45.036850 0.254386 36,000 1 494 0
2020-01-23 14:33:28 GMT 45.024532 0.254025 36,000 1 494 0
2020-01-23 14:33:23 GMT 45.014011 0.253690 36,000 1 495 0
2020-01-23 14:33:14 GMT 44.994087 0.253087 36,000 1 497 0
2020-01-23 14:33:10 GMT 44.984684 0.252887 36,000 1 497 0
2020-01-23 14:33:07 GMT 44.977798 0.252686 36,000 0 497 0
2020-01-23 14:33:04 GMT 44.971371 0.252552 36,000 1 498 0
2020-01-23 14:33:00 GMT 44.959900 0.252293 36,000 1 495 0
2020-01-23 14:32:56 GMT 44.954147 0.252150 36,000 1 498 64
2020-01-23 14:32:51 GMT 44.941498 0.251770 36,000 1 498 -64
2020-01-23 14:32:46 GMT 44.929752 0.251413 36,000 1 498 0
2020-01-23 14:32:41 GMT 44.918488 0.251145 36,000 1 497 64
2020-01-23 14:32:36 GMT 44.906525 0.250810 36,000 1 497 0
2020-01-23 14:32:31 GMT 44.894577 0.250462 36,000 1 495 0
2020-01-23 14:32:26 GMT 44.884037 0.250140 36,000 1 497 0
2020-01-23 14:32:19 GMT 44.867744 0.249671 36,000 1 496 0
2020-01-23 14:32:15 GMT 44.859924 0.249470 36,000 1 496 0
2020-01-23 14:32:12 GMT 44.849403 0.249135 36,000 1 496 -64
2020-01-23 14:32:05 GMT 44.835388 0.248762 36,000 1 495 0
2020-01-23 14:31:59 GMT 44.823257 0.248369 36,000 1 495 -64
2020-01-23 14:31:56 GMT 44.813187 0.248108 36,000 1 495 0
2020-01-23 14:31:49 GMT 44.797638 0.247728 36,000 1 495 0
2020-01-23 14:31:45 GMT 44.790096 0.247527 36,000 1 495 64
2020-01-23 14:31:39 GMT 44.774967 0.247125 36,000 1 495 0
2020-01-23 14:31:34 GMT 44.765808 0.246865 36,000 1 495 0
2020-01-23 14:31:29 GMT 44.751160 0.246473 36,000 1 495 0
2020-01-23 14:31:25 GMT 44.742737 0.246211 36,000 1 495 0
2020-01-23 14:31:17 GMT 44.726925 0.245786 36,000 1 495 0
2020-01-23 14:31:14 GMT 44.704300 0.245116 36,000 1 495 0
2020-01-23 14:31:07 GMT 44.704300 0.245116 36,000 1 494 64
2020-01-23 14:31:04 GMT 44.696091 0.244904 36,000 1 494 64
2020-01-23 14:30:59 GMT 44.682606 0.244513 36,000 1 495 0
2020-01-23 14:30:53 GMT 44.672104 0.244250 36,000 1 495 -128
2020-01-23 14:30:47 GMT 44.657234 0.243843 36,000 1 494 0
2020-01-23 14:30:44 GMT 44.648342 0.243575 36,000 1 494 64
2020-01-23 14:30:39 GMT 44.633469 0.243203 36,000 1 494 0
2020-01-23 14:30:31 GMT 44.622044 0.242905 36,000 1 494 0
2020-01-23 14:30:26 GMT 44.610397 0.242549 36,000 1 495 0
2020-01-23 14:30:23 GMT 44.602386 0.242353 36,000 1 495 0
2020-01-23 14:30:18 GMT 44.590256 0.242026 36,000 1 495 0
2020-01-23 14:30:15 GMT 44.583870 0.241833 36,000 1 496 0
2020-01-23 14:30:12 GMT 44.561852 0.241230 36,000 1 496 -64
2020-01-23 14:30:05 GMT 44.561852 0.241230 36,000 1 496 0
2020-01-23 14:30:02 GMT 44.553635 0.240980 36,000 1 496 64
2020-01-23 14:29:56 GMT 44.540112 0.240560 36,000 1 496 -64
2020-01-23 14:29:53 GMT 44.531387 0.240326 36,000 1 495 64
2020-01-23 14:29:46 GMT 44.518837 0.240024 36,000 1 496 -64
2020-01-23 14:29:42 GMT 44.508728 0.239737 36,000 1 495 0
2020-01-23 14:29:36 GMT 44.494350 0.239288 36,000 1 494 0
2020-01-23 14:29:31 GMT 44.484283 0.239018 36,000 1 495 0
2020-01-23 14:29:26 GMT 44.471447 0.238685 36,000 1 495 -64
2020-01-23 14:29:21 GMT 44.460709 0.238429 36,000 1 494 0
2020-01-23 14:29:15 GMT 44.447239 0.238082 36,000 1 494 0
2020-01-23 14:29:12 GMT 44.423729 0.237412 36,000 1 494 0
2020-01-23 14:29:05 GMT 44.423729 0.237412 36,000 1 494 0
2020-01-23 14:29:01 GMT 44.414154 0.237122 36,000 1 494 0
2020-01-23 14:28:53 GMT 44.396118 0.236598 36,000 1 494 64
2020-01-23 14:28:49 GMT 44.386536 0.236340 36,000 1 494 0
2020-01-23 14:28:45 GMT 44.377441 0.236141 36,000 1 494 -64
2020-01-23 14:28:40 GMT 44.367588 0.235871 36,000 1 494 0
2020-01-23 14:28:37 GMT 44.359406 0.235618 36,000 1 494 0
2020-01-23 14:28:33 GMT 44.349339 0.235402 36,000 1 494 -64
2020-01-23 14:28:23 GMT 44.321228 0.234637 36,000 1 494 0
2020-01-23 14:28:20 GMT 44.321228 0.234637 36,000 1 494 0
2020-01-23 14:28:12 GMT 44.301811 0.234062 36,000 1 495 0
2020-01-23 14:28:06 GMT 44.287891 0.233660 36,000 1 495 -64
2020-01-23 14:27:59 GMT 44.274399 0.233329 36,000 1 495 64
2020-01-23 14:27:50 GMT 44.251068 0.232656 36,000 1 495 0
2020-01-23 14:27:43 GMT 44.235474 0.232254 36,000 1 496 0
2020-01-23 14:27:39 GMT 44.227001 0.231986 36,000 1 496 0
2020-01-23 14:27:28 GMT 44.203400 0.231383 36,000 1 495 -64
2020-01-23 14:27:19 GMT 44.180775 0.230778 36,000 1 495 0
2020-01-23 14:27:09 GMT 44.157394 0.230138 36,000 1 496 0
2020-01-23 14:26:58 GMT 44.133102 0.229470 36,000 1 496 0
2020-01-23 14:26:50 GMT 44.114113 0.228947 36,000 1 495 -64
2020-01-23 14:26:46 GMT 44.105392 0.228733 36,000 1 495 0
2020-01-23 14:26:41 GMT 44.093262 0.228413 36,000 1 495 0
2020-01-23 14:26:38 GMT 44.086411 0.228228 36,000 1 495 -64
2020-01-23 14:26:26 GMT 44.060303 0.227519 36,000 1 495 -64
2020-01-23 14:26:17 GMT 44.038837 0.226985 36,000 1 495 64
2020-01-23 14:26:06 GMT 44.015945 0.226369 36,000 1 495 0
2020-01-23 14:25:57 GMT 43.992096 0.225677 36,000 1 496 64
2020-01-23 14:25:46 GMT 43.968494 0.225089 36,000 1 496 0
2020-01-23 14:25:38 GMT 43.950394 0.224581 36,000 1 496 0
2020-01-23 14:25:26 GMT 43.922222 0.223846 36,000 1 496 0
2020-01-23 14:25:16 GMT 43.898155 0.223192 36,000 1 496 0
2020-01-23 14:25:05 GMT 43.874554 0.222604 36,000 1 496 0
2020-01-23 14:24:54 GMT 43.850952 0.222015 36,000 1 496 0
2020-01-23 14:24:47 GMT 43.832561 0.221492 36,000 1 497 64
2020-01-23 14:24:35 GMT 43.803772 0.220749 36,000 1 499 64
2020-01-23 14:24:25 GMT 43.783077 0.220184 36,000 1 498 64
2020-01-23 14:24:22 GMT 43.776855 0.220046 36,000 1 498 64
2020-01-23 14:24:16 GMT 43.761616 0.219596 36,000 1 499 -64
2020-01-23 14:24:12 GMT 43.753555 0.219407 36,000 1 499 -128
2020-01-23 14:24:04 GMT 43.733734 0.218876 36,050 1 498 -448
2020-01-23 14:24:00 GMT 43.726608 0.218680 36,075 1 498 -768
2020-01-23 14:23:54 GMT 43.710083 0.218222 36,200 1 496 -960
2020-01-23 14:23:49 GMT 43.700680 0.217961 36,275 1 495 -1024
2020-01-23 14:23:45 GMT 43.689926 0.217699 36,350 0 493 -960
2020-01-23 14:23:41 GMT 43.681965 0.217503 36,400 1 492 -960
2020-01-23 14:23:36 GMT 43.669922 0.217235 36,500 1 491 -960
2020-01-23 14:23:33 GMT 43.662872 0.217044 36,525 1 491 -960
2020-01-23 14:23:22 GMT 43.639481 0.216405 36,700 1 491 -960
2020-01-23 14:23:13 GMT 43.610275 0.215703 36,900 1 490 -960
2020-01-23 14:23:06 GMT 43.596031 0.215345 36,975 1 491 -192
2020-01-23 14:23:03 GMT 43.588535 0.215149 37,000 1 491 -256
2020-01-23 14:23:00 GMT 43.588535 0.215149 37,000 1 492 64
2020-01-23 14:22:51 GMT 43.568985 0.214757 37,000 0 492 -128
2020-01-23 14:22:45 GMT 43.553741 0.214617 37,025 0 492 -64
2020-01-23 14:22:41 GMT 43.546921 0.214553 37,000 0 492 128
2020-01-23 14:22:38 GMT 43.540073 0.214560 37,000 0 493 64
2020-01-23 14:22:35 GMT 43.532776 0.214808 37,000 357 494 -64
2020-01-23 14:22:32 GMT 43.523483 0.215639 37,000 355 493 -64
2020-01-23 14:22:26 GMT 43.512131 0.217427 37,000 354 494 0
2020-01-23 14:22:21 GMT 43.499947 0.220184 37,000 349 495 0
2020-01-23 14:22:17 GMT 43.492546 0.222342 37,000 344 496 0
2020-01-23 14:22:13 GMT 43.482147 0.226050 37,000 344 496 -64
2020-01-23 14:22:10 GMT 43.477089 0.228162 37,000 343 496 0
2020-01-23 14:22:01 GMT 43.455723 0.238887 37,000 338 498 0
2020-01-23 14:21:58 GMT 43.449417 0.242785 37,000 335 497 -64
2020-01-23 14:21:51 GMT 43.433853 0.253708 37,000 330 498 0
2020-01-23 14:21:43 GMT 43.420898 0.264630 37,000 327 498 0
2020-01-23 14:21:40 GMT 43.414433 0.270735 37,000 325 499 0
2020-01-23 14:21:32 GMT 43.399521 0.286603 37,000 320 499 0
2020-01-23 14:21:29 GMT 43.394623 0.292479 37,000 317 498 -64
2020-01-23 14:21:19 GMT 43.377731 0.315729 37,000 312 498 128
2020-01-23 14:21:12 GMT 43.367043 0.333514 37,000 308 498 -64
2020-01-23 14:21:09 GMT 43.363316 0.340315 37,000 306 497 0
2020-01-23 14:21:02 GMT 43.354610 0.358102 37,000 300 495 -64
2020-01-23 14:20:58 GMT 43.350281 0.368042 37,000 300 495 -64
2020-01-23 14:20:50 GMT 43.341980 0.390015 37,000 294 493 128
2020-01-23 14:20:47 GMT 43.339233 0.398318 37,000 293 493 64
2020-01-23 14:20:41 GMT 43.334129 0.415976 37,000 290 492 0
2020-01-23 14:20:38 GMT 43.331497 0.426614 37,000 288 491 0
2020-01-23 14:20:29 GMT 43.325146 0.460837 37,000 281 487 -64
2020-01-23 14:20:20 GMT 43.322865 0.479671 37,000 277 483 0
2020-01-23 14:20:16 GMT 43.321884 0.492149 37,000 276 483 64
2020-01-23 14:20:09 GMT 43.321060 0.511950 37,000 270 480 64
2020-01-23 14:20:06 GMT 43.320999 0.523485 37,000 270 480 64
2020-01-23 14:19:59 GMT 43.321701 0.543759 37,000 265 476 0
2020-01-23 14:19:56 GMT 43.322388 0.553021 37,000 263 475 0
2020-01-23 14:19:48 GMT 43.325516 0.580314 37,000 259 473 0
2020-01-23 14:19:39 GMT 43.329659 0.603529 37,000 255 469 -64
2020-01-23 14:19:35 GMT 43.331955 0.613701 37,000 252 468 -128
2020-01-23 14:19:30 GMT 43.338177 0.636749 37,025 248 466 -64
2020-01-23 14:19:27 GMT 43.338177 0.636749 37,025 248 465 0
2020-01-23 14:19:24 GMT 43.340134 0.642962 37,025 246 464 128
2020-01-23 14:19:18 GMT 43.345963 0.659691 37,000 241 462 0
2020-01-23 14:19:14 GMT 43.350235 0.670493 37,000 241 462 0
2020-01-23 14:19:10 GMT 43.354614 0.680514 37,000 238 460 0
2020-01-23 14:19:03 GMT 43.362900 0.697504 37,000 235 459 0
2020-01-23 14:19:00 GMT 43.366390 0.704041 37,000 233 458 64
2020-01-23 14:18:54 GMT 43.374756 0.718263 37,000 229 457 0
2020-01-23 14:18:51 GMT 43.380798 0.727589 37,000 227 456 -64
2020-01-23 14:18:46 GMT 43.386360 0.735495 37,000 225 455 0
2020-01-23 14:18:40 GMT 43.395855 0.747724 37,000 222 453 0
2020-01-23 14:18:35 GMT 43.402699 0.755768 37,000 214 449 0
2020-01-23 14:18:28 GMT 43.415771 0.769554 37,000 215 449 0
2020-01-23 14:18:24 GMT 43.422810 0.776106 37,000 214 449 0
2020-01-23 14:18:20 GMT 43.438126 0.788661 37,000 209 447 0
2020-01-23 14:18:15 GMT 43.438126 0.788661 37,000 205 445 -64
2020-01-23 14:18:12 GMT 43.443386 0.792520 37,000 207 446 -64
2020-01-23 14:18:07 GMT 43.452850 0.798808 37,000 204 444 0
2020-01-23 14:18:02 GMT 43.461914 0.804225 37,000 202 444 0
2020-01-23 14:17:59 GMT 43.468201 0.807626 37,000 200 443 64
2020-01-23 14:17:54 GMT 43.477882 0.812269 37,000 199 442 64
2020-01-23 14:17:51 GMT 43.483109 0.814457 37,000 196 441 -64
2020-01-23 14:17:48 GMT 43.489056 0.816650 37,000 195 441 -64
2020-01-23 14:17:44 GMT 43.499390 0.819659 37,000 191 440 -64
2020-01-23 14:17:39 GMT 43.508652 0.821356 37,000 187 438 0
2020-01-23 14:17:34 GMT 43.516525 0.822442 37,000 186 438 64
2020-01-23 14:17:29 GMT 43.526993 0.823909 37,000 186 438 0
2020-01-23 14:17:26 GMT 43.533417 0.824805 37,000 186 438 0
2020-01-23 14:17:18 GMT 43.549946 0.827114 37,000 187 437 0
2020-01-23 14:17:13 GMT 43.558411 0.828318 37,000 187 437 64
2020-01-23 14:17:09 GMT 43.568253 0.829723 37,000 187 437 64
2020-01-23 14:17:04 GMT 43.578323 0.831192 37,000 187 437 -64
2020-01-23 14:16:58 GMT 43.589401 0.832789 37,000 187 437 64
2020-01-23 14:16:53 GMT 43.600452 0.834372 37,000 187 438 0
2020-01-23 14:16:47 GMT 43.612564 0.836111 37,000 187 438 -64
2020-01-23 14:16:43 GMT 43.618561 0.836988 37,000 187 438 -64
2020-01-23 14:16:38 GMT 43.629875 0.838688 37,000 187 437 64
2020-01-23 14:16:33 GMT 43.639114 0.840071 37,000 187 438 0
2020-01-23 14:16:28 GMT 43.651009 0.841827 37,000 187 438 0
2020-01-23 14:16:25 GMT 43.658661 0.843009 37,000 187 438 0
2020-01-23 14:16:17 GMT 43.671753 0.844989 37,000 187 438 0
2020-01-23 14:16:12 GMT 43.682419 0.846586 37,000 187 438 0
2020-01-23 14:16:08 GMT 43.690067 0.847713 37,000 187 438 0
2020-01-23 14:16:03 GMT 43.699562 0.849152 37,000 187 438 -64
2020-01-23 14:15:58 GMT 43.711666 0.850983 37,000 187 438 64
2020-01-23 14:15:53 GMT 43.719727 0.852207 37,000 187 438 0
2020-01-23 14:15:47 GMT 43.734013 0.854383 37,000 187 437 -64
2020-01-23 14:15:43 GMT 43.752914 0.857317 37,000 187 436 -64
2020-01-23 14:15:37 GMT 43.752914 0.857317 37,000 187 437 64
2020-01-23 14:15:34 GMT 43.758919 0.858241 37,000 187 436 0
2020-01-23 14:15:30 GMT 43.765945 0.859353 37,000 187 436 -64
2020-01-23 14:15:27 GMT 43.772556 0.860334 37,000 187 436 0
2020-01-23 14:15:21 GMT 43.783813 0.862107 37,000 187 436 -64
2020-01-23 14:15:15 GMT 43.802631 0.865108 37,000 187 435 64
2020-01-23 14:15:12 GMT 43.802631 0.865108 37,000 187 435 64
2020-01-23 14:15:06 GMT 43.815262 0.867217 37,000 188 436 64
2020-01-23 14:15:03 GMT 43.822834 0.868574 37,000 189 436 0
2020-01-23 14:14:56 GMT 43.834427 0.870993 37,000 190 437 0
2020-01-23 14:14:46 GMT 43.855095 0.876094 37,000 192 437 64
2020-01-23 14:14:41 GMT 43.863846 0.878514 37,000 192 437 0
2020-01-23 14:14:35 GMT 43.875950 0.881914 37,000 192 437 0
2020-01-23 14:14:31 GMT 43.895130 0.887277 37,000 192 435 -64
2020-01-23 14:14:25 GMT 43.895130 0.887277 37,000 192 436 0
2020-01-23 14:14:19 GMT 43.907791 0.890808 37,000 192 436 64
2020-01-23 14:14:15 GMT 43.915890 0.893032 37,000 192 436 64
2020-01-23 14:14:10 GMT 43.936653 0.898852 37,000 192 435 0
2020-01-23 14:14:04 GMT 43.936653 0.898852 37,000 192 435 -64
2020-01-23 14:13:59 GMT 43.947315 0.901794 37,000 192 435 64
2020-01-23 14:13:55 GMT 43.955612 0.904136 37,000 192 435 64
2020-01-23 14:13:48 GMT 43.970947 0.908480 37,000 192 434 0
2020-01-23 14:13:45 GMT 43.975292 0.909642 37,000 192 434 -64
2020-01-23 14:13:41 GMT 43.984928 0.912388 37,000 192 434 0
2020-01-23 14:13:35 GMT 43.995163 0.915251 37,000 192 434 0
2020-01-23 14:13:27 GMT 44.015808 0.920999 37,000 192 434 -64
2020-01-23 14:13:24 GMT 44.015808 0.920999 37,000 192 434 -64
2020-01-23 14:13:20 GMT 44.024872 0.923554 37,000 192 433 0
2020-01-23 14:13:17 GMT 44.030781 0.925206 37,000 192 433 128
2020-01-23 14:13:14 GMT 44.036682 0.926876 37,000 192 433 128
2020-01-23 14:13:07 GMT 44.050415 0.930708 37,000 192 434 -64
2020-01-23 14:13:04 GMT 44.069550 0.936073 37,000 192 434 0
2020-01-23 14:12:58 GMT 44.069550 0.936073 37,000 192 434 0
2020-01-23 14:12:53 GMT 44.077381 0.938285 37,000 192 434 0
2020-01-23 14:12:49 GMT 44.085480 0.940508 37,000 192 434 0
2020-01-23 14:12:46 GMT 44.091953 0.942339 37,000 192 434 0
2020-01-23 14:12:43 GMT 44.097702 0.943994 37,000 192 434 0
2020-01-23 14:12:37 GMT 44.109512 0.947315 37,000 192 434 64
2020-01-23 14:12:32 GMT 44.118576 0.949806 37,000 192 434 64
2020-01-23 14:12:26 GMT 44.130405 0.953195 37,000 192 435 -64
2020-01-23 14:12:23 GMT 44.136501 0.954895 37,000 192 435 -64
2020-01-23 14:12:19 GMT 44.147163 0.957903 37,000 192 435 0
2020-01-23 14:12:16 GMT 44.150700 0.958884 37,000 192 435 0
2020-01-23 14:12:13 GMT 44.166092 0.963284 37,000 192 435 64
2020-01-23 14:12:05 GMT 44.172226 0.965008 37,000 192 435 0
2020-01-23 14:12:02 GMT 44.176987 0.966286 37,000 192 435 0
2020-01-23 14:11:58 GMT 44.186268 0.968890 37,000 192 435 0
2020-01-23 14:11:55 GMT 44.193577 0.970982 37,000 192 435 0
2020-01-23 14:11:48 GMT 44.207977 0.974971 37,000 192 435 0
2020-01-23 14:11:44 GMT 44.213699 0.976606 37,000 192 435 0
2020-01-23 14:11:41 GMT 44.218414 0.977914 37,000 192 435 0
2020-01-23 14:11:35 GMT 44.230865 0.981468 37,000 192 435 -64
2020-01-23 14:11:32 GMT 44.236771 0.983146 37,000 192 435 0
2020-01-23 14:11:28 GMT 44.252323 0.987564 37,000 192 435 0
2020-01-23 14:11:24 GMT 44.252323 0.987564 37,000 192 435 -64
2020-01-23 14:11:21 GMT 44.258240 0.989227 37,000 192 435 0
2020-01-23 14:11:15 GMT 44.273460 0.993593 37,000 192 435 64
2020-01-23 14:11:12 GMT 44.277008 0.994590 37,000 192 435 0
2020-01-23 14:11:04 GMT 44.300079 1.001129 37,000 192 435 0
2020-01-23 14:11:00 GMT 44.300079 1.001129 37,000 192 435 0
2020-01-23 14:10:54 GMT 44.312714 1.004660 37,000 192 435 64
2020-01-23 14:10:51 GMT 44.317451 1.005986 37,000 192 435 64
2020-01-23 14:10:43 GMT 44.334023 1.010675 37,000 192 436 0
2020-01-23 14:10:40 GMT 44.338959 1.012082 37,000 192 436 0
2020-01-23 14:10:36 GMT 44.347275 1.014470 37,000 192 436 0
2020-01-23 14:10:33 GMT 44.353996 1.016369 37,000 192 436 0
2020-01-23 14:10:29 GMT 44.361099 1.018393 37,000 192 436 -64
2020-01-23 14:10:23 GMT 44.373966 1.022063 37,000 192 436 0
2020-01-23 14:10:19 GMT 44.380280 1.023821 37,000 192 435 0
2020-01-23 14:10:16 GMT 44.386185 1.025521 37,000 192 435 64
2020-01-23 14:10:12 GMT 44.395844 1.028227 37,000 192 435 0
2020-01-23 14:10:09 GMT 44.401386 1.029834 37,000 192 436 0
2020-01-23 14:10:05 GMT 44.411865 1.032780 37,000 192 435 0
2020-01-23 14:10:01 GMT 44.415802 1.033892 37,000 192 435 0
2020-01-23 14:09:56 GMT 44.427872 1.037337 37,000 192 435 0
2020-01-23 14:09:51 GMT 44.436344 1.039749 37,000 192 436 0
2020-01-23 14:09:47 GMT 44.443863 1.041870 37,000 192 436 0
2020-01-23 14:09:41 GMT 44.456131 1.045336 37,000 192 436 0
2020-01-23 14:09:33 GMT 44.472145 1.049931 37,000 192 436 0
2020-01-23 14:09:30 GMT 44.476868 1.051287 37,000 192 436 64
2020-01-23 14:09:23 GMT 44.492340 1.055734 37,000 192 437 0
2020-01-23 14:09:20 GMT 44.498062 1.057369 37,000 192 437 -64
2020-01-23 14:09:12 GMT 44.515530 1.062391 37,000 192 437 -64
2020-01-23 14:09:04 GMT 44.531776 1.067014 37,000 192 437 64
2020-01-23 14:09:01 GMT 44.535553 1.068028 37,000 192 437 64
2020-01-23 14:08:53 GMT 44.563293 1.076006 37,000 192 437 0
2020-01-23 14:08:47 GMT 44.563293 1.076006 37,000 192 437 0
2020-01-23 14:08:40 GMT 44.576797 1.079865 37,000 192 437 0
2020-01-23 14:08:37 GMT 44.582108 1.081369 37,000 192 437 0
2020-01-23 14:08:32 GMT 44.593040 1.084498 37,000 192 437 64
2020-01-23 14:08:28 GMT 44.601559 1.086910 37,000 192 437 0
2020-01-23 14:08:20 GMT 44.616642 1.091197 37,000 192 438 0
2020-01-23 14:08:12 GMT 44.632919 1.095821 37,000 192 438 0
2020-01-23 14:08:07 GMT 44.642670 1.098633 37,000 192 438 0
2020-01-23 14:07:59 GMT 44.658539 1.103188 37,000 192 439 0
2020-01-23 14:07:56 GMT 44.664322 1.104845 37,000 192 440 0
2020-01-23 14:07:50 GMT 44.678883 1.109016 37,000 192 440 0
2020-01-23 14:07:39 GMT 44.705139 1.116653 37,000 192 440 0
2020-01-23 14:07:30 GMT 44.716324 1.119886 37,000 192 440 -64
2020-01-23 14:07:26 GMT 44.724518 1.122175 37,000 192 440 0
2020-01-23 14:07:18 GMT 44.739449 1.126501 37,000 192 441 0
2020-01-23 14:07:14 GMT 44.749039 1.129247 37,000 192 441 0
2020-01-23 14:07:09 GMT 44.760021 1.132396 37,000 192 440 0
2020-01-23 14:07:05 GMT 44.766216 1.134204 37,000 192 440 0
2020-01-23 14:06:59 GMT 44.777760 1.137554 37,000 192 441 0
2020-01-23 14:06:55 GMT 44.785534 1.139765 37,000 192 441 0
2020-01-23 14:06:48 GMT 44.800709 1.144186 37,000 192 441 0
2020-01-23 14:06:43 GMT 44.809479 1.146698 37,000 192 441 -64
2020-01-23 14:06:40 GMT 44.816257 1.148674 37,000 192 440 0
2020-01-23 14:06:37 GMT 44.820866 1.149947 37,000 192 440 0
2020-01-23 14:06:34 GMT 44.827805 1.151957 37,000 192 439 64
2020-01-23 14:06:30 GMT 44.836578 1.154480 37,000 192 440 0
2020-01-23 14:06:27 GMT 44.841980 1.155984 37,000 192 440 0
2020-01-23 14:06:21 GMT 44.854706 1.159712 37,000 192 439 0
2020-01-23 14:06:11 GMT 44.875626 1.165728 37,000 192 440 0
2020-01-23 14:06:05 GMT 44.885948 1.168771 37,000 192 439 0
2020-01-23 14:06:00 GMT 44.895493 1.171548 37,000 192 438 0
2020-01-23 14:05:56 GMT 44.902451 1.173510 37,000 192 438 0
2020-01-23 14:05:53 GMT 44.910187 1.175733 37,000 192 438 0
2020-01-23 14:05:46 GMT 44.923702 1.179623 37,000 192 437 0
2020-01-23 14:05:42 GMT 44.930237 1.181553 37,000 192 437 0
2020-01-23 14:05:39 GMT 44.936783 1.183450 37,000 192 437 0
2020-01-23 14:05:36 GMT 44.943741 1.185477 37,000 192 437 0
2020-01-23 14:05:32 GMT 44.951248 1.187635 37,000 192 438 0
2020-01-23 14:05:28 GMT 44.959351 1.189989 37,000 192 438 0
2020-01-23 14:05:23 GMT 44.969055 1.192801 37,000 192 438 0
2020-01-23 14:05:20 GMT 44.976791 1.195090 37,000 192 436 64
2020-01-23 14:05:15 GMT 44.993408 1.199864 37,000 192 436 -64
2020-01-23 14:05:11 GMT 44.993408 1.199864 37,000 192 436 0
2020-01-23 14:05:05 GMT 45.004486 1.203068 37,000 192 436 -64
2020-01-23 14:04:59 GMT 45.016754 1.206665 37,000 192 435 0
2020-01-23 14:04:55 GMT 45.024445 1.208888 37,000 192 435 64
2020-01-23 14:04:49 GMT 45.036850 1.212485 37,000 192 435 0
2020-01-23 14:04:45 GMT 45.044724 1.214839 37,000 192 434 64
2020-01-23 14:04:40 GMT 45.065414 1.220856 37,000 192 434 0
2020-01-23 14:04:35 GMT 45.065414 1.220856 37,000 192 434 0
2020-01-23 14:04:29 GMT 45.074661 1.223537 37,000 192 434 -64
2020-01-23 14:04:24 GMT 45.086105 1.226807 37,000 192 434 -64
2020-01-23 14:04:19 GMT 45.097107 1.230067 37,000 192 435 64
2020-01-23 14:04:14 GMT 45.115219 1.235373 37,000 192 434 0
2020-01-23 14:04:09 GMT 45.115219 1.235373 37,000 192 434 0
2020-01-23 14:04:06 GMT 45.121128 1.237101 37,000 192 435 0
2020-01-23 14:04:03 GMT 45.125877 1.238508 37,000 192 435 -64
2020-01-23 14:03:59 GMT 45.135326 1.241254 37,000 192 435 -64
2020-01-23 14:03:53 GMT 45.148132 1.244986 37,000 192 434 0
2020-01-23 14:03:48 GMT 45.156235 1.247275 37,000 192 434 0
2020-01-23 14:03:43 GMT 45.166100 1.250164 37,000 192 434 0
2020-01-23 14:03:37 GMT 45.185974 1.255992 37,000 192 435 0
2020-01-23 14:03:33 GMT 45.185974 1.255992 37,000 192 434 0
2020-01-23 14:03:28 GMT 45.196590 1.259073 37,000 192 434 0
2020-01-23 14:03:25 GMT 45.201340 1.260480 37,000 192 434 -64
2020-01-23 14:03:22 GMT 45.207020 1.262155 37,000 192 434 -64
2020-01-23 14:03:17 GMT 45.217258 1.265169 37,000 192 434 64
2020-01-23 14:03:12 GMT 45.228882 1.268529 37,000 192 434 0
2020-01-23 14:03:07 GMT 45.237350 1.271014 37,000 192 434 -64
2020-01-23 14:03:02 GMT 45.246353 1.273610 37,000 192 434 -64
2020-01-23 14:02:57 GMT 45.257538 1.276899 37,000 192 432 -64
2020-01-23 14:02:54 GMT 45.262463 1.278366 37,000 192 433 64
2020-01-23 14:02:50 GMT 45.269897 1.280561 37,000 192 433 64
2020-01-23 14:02:46 GMT 45.277916 1.282922 37,000 192 433 64
2020-01-23 14:02:41 GMT 45.287132 1.285668 37,000 192 431 0
2020-01-23 14:02:36 GMT 45.297913 1.288801 37,000 192 432 -64
2020-01-23 14:02:32 GMT 45.307480 1.291613 37,000 192 432 0
2020-01-23 14:02:29 GMT 45.313343 1.293372 37,000 192 432 0
2020-01-23 14:02:26 GMT 45.322514 1.296052 37,000 192 431 0
2020-01-23 14:02:20 GMT 45.329178 1.297956 37,000 192 431 0
2020-01-23 14:02:16 GMT 45.337177 1.300272 37,000 192 431 0
2020-01-23 14:02:13 GMT 45.343601 1.302215 37,000 192 431 0
2020-01-23 14:02:08 GMT 45.352158 1.304692 37,000 192 430 0
2020-01-23 14:02:05 GMT 45.358978 1.306719 37,000 192 430 0
2020-01-23 14:02:02 GMT 45.377838 1.312343 37,000 192 430 0
2020-01-23 14:01:55 GMT 45.377838 1.312343 37,000 192 429 64
2020-01-23 14:01:52 GMT 45.383469 1.313978 37,000 192 429 64
2020-01-23 14:01:48 GMT 45.393600 1.316953 37,000 192 429 0
2020-01-23 14:01:44 GMT 45.399445 1.318686 37,000 192 429 -64
2020-01-23 14:01:40 GMT 45.407425 1.320972 37,000 192 429 -64
2020-01-23 14:01:33 GMT 45.420456 1.324768 37,000 192 431 0
2020-01-23 14:01:30 GMT 45.436752 1.329607 37,000 192 431 64
2020-01-23 14:01:25 GMT 45.436752 1.329607 37,000 192 430 64
2020-01-23 14:01:21 GMT 45.454468 1.334839 37,000 192 430 64
2020-01-23 14:01:16 GMT 45.454468 1.334839 37,000 192 431 64
2020-01-23 14:01:11 GMT 45.463055 1.337384 37,000 192 430 -64
2020-01-23 14:01:06 GMT 45.475342 1.340986 37,000 192 430 0
2020-01-23 14:01:01 GMT 45.483307 1.343340 37,000 192 431 0
2020-01-23 14:00:57 GMT 45.496582 1.347264 37,000 192 431 -64
2020-01-23 14:00:54 GMT 45.496582 1.347264 37,000 192 430 -64
2020-01-23 14:00:51 GMT 45.508446 1.350782 37,000 192 430 -64
2020-01-23 14:00:44 GMT 45.516079 1.352993 37,000 192 431 0
2020-01-23 14:00:41 GMT 45.522503 1.354936 37,000 192 430 0
2020-01-23 14:00:34 GMT 45.535904 1.358904 37,000 192 431 -64
2020-01-23 14:00:30 GMT 45.542358 1.360801 37,000 192 430 0
2020-01-23 14:00:23 GMT 45.556160 1.364914 37,000 192 430 0
2020-01-23 14:00:20 GMT 45.563004 1.366905 37,000 192 430 0
2020-01-23 14:00:14 GMT 45.575432 1.370613 37,000 192 430 64
2020-01-23 14:00:10 GMT 45.582825 1.372822 37,000 192 431 0
2020-01-23 14:00:01 GMT 45.605804 1.379655 37,000 192 430 0
2020-01-23 13:59:58 GMT 45.605804 1.379655 37,000 192 430 0
2020-01-23 13:59:53 GMT 45.614960 1.382402 37,000 192 430 -64
2020-01-23 13:59:49 GMT 45.622730 1.384689 37,000 192 429 0
2020-01-23 13:59:46 GMT 45.628967 1.386555 37,000 192 429 0
2020-01-23 13:59:43 GMT 45.635159 1.388397 37,000 192 429 64
2020-01-23 13:59:39 GMT 45.641785 1.390373 37,000 192 429 64
2020-01-23 13:59:35 GMT 45.650894 1.393066 37,000 192 429 64
2020-01-23 13:59:31 GMT 45.657349 1.394929 37,000 192 430 64
2020-01-23 13:59:28 GMT 45.663345 1.396737 36,975 192 429 64
2020-01-23 13:59:22 GMT 45.674870 1.400139 36,975 192 431 64
2020-01-23 13:59:19 GMT 45.682083 1.402267 36,975 192 431 -64
2020-01-23 13:59:16 GMT 45.694336 1.405982 36,975 192 431 -64
2020-01-23 13:59:12 GMT 45.694336 1.405982 37,000 192 431 -64
2020-01-23 13:59:09 GMT 45.701729 1.408173 37,000 192 430 -64
2020-01-23 13:59:06 GMT 45.708755 1.410269 37,000 192 430 0
2020-01-23 13:59:03 GMT 45.714752 1.412011 37,000 192 429 64
2020-01-23 13:58:56 GMT 45.725239 1.415176 37,000 192 429 64
2020-01-23 13:58:52 GMT 45.734161 1.417839 37,000 192 428 0
2020-01-23 13:58:46 GMT 45.744644 1.420988 37,000 192 428 0
2020-01-23 13:58:41 GMT 45.754486 1.423935 37,000 192 427 0
2020-01-23 13:58:37 GMT 45.763229 1.426548 37,000 192 427 0
2020-01-23 13:58:31 GMT 45.775002 1.430077 37,000 192 426 0
2020-01-23 13:58:27 GMT 45.782169 1.432205 37,000 192 426 0
2020-01-23 13:58:22 GMT 45.792984 1.435391 37,000 192 426 0
2020-01-23 13:58:17 GMT 45.801086 1.437802 37,000 192 426 0
2020-01-23 13:58:13 GMT 45.809589 1.440376 37,000 192 426 0
2020-01-23 13:58:10 GMT 45.815369 1.442090 37,000 192 426 0
2020-01-23 13:58:05 GMT 45.824799 1.444903 37,000 192 425 -64
2020-01-23 13:58:00 GMT 45.834824 1.447918 37,000 192 425 64
2020-01-23 13:57:57 GMT 45.840641 1.449646 37,000 192 425 0
2020-01-23 13:57:51 GMT 45.851997 1.453011 37,000 192 425 -64
2020-01-23 13:57:45 GMT 45.862564 1.456157 37,000 192 425 0
2020-01-23 13:57:42 GMT 45.869503 1.458229 37,000 192 425 0
2020-01-23 13:57:39 GMT 45.875290 1.459909 37,000 192 425 0
2020-01-23 13:57:35 GMT 45.883373 1.462349 37,000 192 425 0
2020-01-23 13:57:31 GMT 45.892780 1.465233 37,000 192 425 -64
2020-01-23 13:57:28 GMT 45.895477 1.466005 37,000 192 425 0
2020-01-23 13:57:23 GMT 45.911259 1.470726 37,000 192 425 0
2020-01-23 13:57:15 GMT 45.926834 1.475450 37,000 192 425 64
2020-01-23 13:57:12 GMT 45.926834 1.475450 37,000 192 425 0
2020-01-23 13:57:09 GMT 45.941025 1.479671 37,000 192 425 -64
2020-01-23 13:57:05 GMT 45.941025 1.479671 37,000 192 425 0
2020-01-23 13:57:02 GMT 45.946976 1.481480 37,000 192 425 64
2020-01-23 13:56:58 GMT 45.954483 1.483690 37,000 192 425 64
2020-01-23 13:56:55 GMT 45.959290 1.485164 37,000 192 425 64
2020-01-23 13:56:48 GMT 45.973686 1.489540 37,000 192 425 0
2020-01-23 13:56:44 GMT 45.981602 1.491875 37,000 192 425 0
2020-01-23 13:56:41 GMT 45.987930 1.493797 37,000 192 425 64
2020-01-23 13:56:38 GMT 45.993530 1.495480 37,000 192 425 64
2020-01-23 13:56:34 GMT 46.000031 1.497490 37,000 192 425 0
2020-01-23 13:56:29 GMT 46.018524 1.503050 37,000 192 425 -64
2020-01-23 13:56:24 GMT 46.018524 1.503050 37,000 192 425 0
2020-01-23 13:56:20 GMT 46.032158 1.507118 37,000 192 425 0
2020-01-23 13:56:17 GMT 46.040039 1.509481 37,000 192 425 0
2020-01-23 13:56:13 GMT 46.040039 1.509481 37,000 192 424 0
2020-01-23 13:56:09 GMT 46.048645 1.512094 37,000 192 424 0
2020-01-23 13:56:05 GMT 46.055573 1.514191 37,000 192 421 0
2020-01-23 13:56:01 GMT 46.062462 1.516251 37,000 192 424 -64
2020-01-23 13:55:58 GMT 46.069771 1.518448 37,000 192 424 0
2020-01-23 13:55:52 GMT 46.080666 1.521744 37,000 193 423 -64
2020-01-23 13:55:49 GMT 46.087368 1.523804 37,000 192 421 0
2020-01-23 13:55:42 GMT 46.100727 1.527855 37,000 192 422 0
2020-01-23 13:55:37 GMT 46.108337 1.530114 37,000 192 421 0
2020-01-23 13:55:34 GMT 46.117493 1.532861 37,000 192 420 0
2020-01-23 13:55:31 GMT 46.119999 1.533623 37,000 192 421 -64
2020-01-23 13:55:28 GMT 46.126656 1.535614 37,000 193 423 0
2020-01-23 13:55:22 GMT 46.136948 1.538689 37,000 192 421 0
2020-01-23 13:55:19 GMT 46.143974 1.540833 37,000 192 421 0
2020-01-23 13:55:16 GMT 46.147980 1.542038 37,000 192 421 0
2020-01-23 13:55:13 GMT 46.154076 1.543922 37,000 192 421 0
2020-01-23 13:55:10 GMT 46.159790 1.545656 37,000 192 421 0
2020-01-23 13:55:07 GMT 46.175766 1.550479 37,000 192 421 0
2020-01-23 13:55:02 GMT 46.185287 1.553360 37,000 192 421 0
2020-01-23 13:54:58 GMT 46.190643 1.554967 37,000 192 422 0
2020-01-23 13:54:51 GMT 46.197136 1.556969 37,000 192 422 -64
2020-01-23 13:54:47 GMT 46.203793 1.558960 37,000 192 422 -64
2020-01-23 13:54:40 GMT 46.216965 1.562939 37,000 192 422 0
2020-01-23 13:54:37 GMT 46.223648 1.564949 37,000 193 423 0
2020-01-23 13:54:31 GMT 46.235870 1.568700 37,000 193 423 64
2020-01-23 13:54:26 GMT 46.243736 1.571045 37,000 192 423 -64
2020-01-23 13:54:20 GMT 46.255234 1.574528 37,000 192 424 -64
2020-01-23 13:54:17 GMT 46.262684 1.576813 37,000 192 426 64
2020-01-23 13:54:10 GMT 46.274185 1.580290 37,000 192 424 0
2020-01-23 13:54:07 GMT 46.282421 1.582855 37,000 192 424 0
2020-01-23 13:54:01 GMT 46.302204 1.588829 37,000 192 425 0
2020-01-23 13:53:56 GMT 46.302204 1.588829 37,000 192 426 64
2020-01-23 13:53:52 GMT 46.309891 1.591142 37,000 192 426 0
2020-01-23 13:53:49 GMT 46.323574 1.595352 37,000 192 426 64
2020-01-23 13:53:46 GMT 46.323574 1.595352 37,000 192 426 0
2020-01-23 13:53:39 GMT 46.335342 1.598980 37,000 192 427 0
2020-01-23 13:53:34 GMT 46.343452 1.601463 37,000 192 428 64
2020-01-23 13:53:31 GMT 46.355835 1.605240 37,000 192 429 0
2020-01-23 13:53:24 GMT 46.364410 1.607822 37,000 192 429 0
2020-01-23 13:53:19 GMT 46.373524 1.610596 37,000 192 430 0
2020-01-23 13:53:15 GMT 46.382694 1.613342 37,000 192 431 0
2020-01-23 13:53:11 GMT 46.390091 1.615593 37,000 192 431 -64
2020-01-23 13:53:07 GMT 46.397278 1.617804 37,000 192 431 -64
2020-01-23 13:53:04 GMT 46.401966 1.619247 37,000 192 431 -64
2020-01-23 13:52:58 GMT 46.414261 1.623029 37,000 193 431 64
2020-01-23 13:52:53 GMT 46.425011 1.626320 37,000 192 432 -128
2020-01-23 13:52:50 GMT 46.431061 1.628174 37,000 193 431 0
2020-01-23 13:52:44 GMT 46.442188 1.631607 37,000 192 432 128
2020-01-23 13:52:37 GMT 46.456993 1.636070 37,000 192 432 -64
2020-01-23 13:52:34 GMT 46.468723 1.639641 37,000 193 431 64
2020-01-23 13:52:30 GMT 46.475567 1.641701 37,000 192 432 0
2020-01-23 13:52:27 GMT 46.475567 1.641701 37,000 192 432 0
2020-01-23 13:52:24 GMT 46.481781 1.643595 37,000 192 432 0
2020-01-23 13:52:19 GMT 46.496613 1.648150 37,000 193 431 -64
2020-01-23 13:52:12 GMT 46.503433 1.650294 37,000 193 431 0
2020-01-23 13:52:08 GMT 46.512039 1.652973 37,000 193 431 128
2020-01-23 13:52:05 GMT 46.518265 1.654849 37,000 193 431 64
2020-01-23 13:52:02 GMT 46.532871 1.659348 37,000 192 431 -64
2020-01-23 13:51:57 GMT 46.532871 1.659348 37,000 193 431 64
2020-01-23 13:51:53 GMT 46.541656 1.662084 37,000 192 431 64
2020-01-23 13:51:49 GMT 46.548889 1.664295 37,000 192 431 0
2020-01-23 13:51:44 GMT 46.558044 1.667108 37,000 192 431 0
2020-01-23 13:51:41 GMT 46.563675 1.668783 37,000 192 431 0
2020-01-23 13:51:37 GMT 46.573048 1.671707 37,000 193 431 64
2020-01-23 13:51:34 GMT 46.578506 1.673405 37,000 192 432 -64
2020-01-23 13:51:31 GMT 46.589264 1.676688 37,000 193 432 64
2020-01-23 13:51:28 GMT 46.589264 1.676688 37,000 192 432 -64
2020-01-23 13:51:24 GMT 46.607025 1.682181 37,000 193 432 64
2020-01-23 13:51:20 GMT 46.607025 1.682181 37,000 193 432 0
2020-01-23 13:51:16 GMT 46.613892 1.684258 37,000 192 433 -128
2020-01-23 13:51:12 GMT 46.621536 1.686602 37,000 192 433 0
2020-01-23 13:51:08 GMT 46.629181 1.688947 37,000 192 433 128
2020-01-23 13:51:05 GMT 46.641945 1.692856 37,000 193 435 -64
2020-01-23 13:51:02 GMT 46.641945 1.692856 37,000 193 435 -64
2020-01-23 13:50:59 GMT 46.647438 1.694572 37,000 192 435 -128
2020-01-23 13:50:55 GMT 46.655678 1.697113 37,000 193 435 0
2020-01-23 13:50:51 GMT 46.667686 1.700890 37,000 193 435 0
2020-01-23 13:50:48 GMT 46.673584 1.702680 37,000 193 435 0
2020-01-23 13:50:42 GMT 46.681641 1.705226 37,000 192 435 -64
2020-01-23 13:50:39 GMT 46.687519 1.707001 37,000 192 434 0
2020-01-23 13:50:35 GMT 46.693405 1.708843 37,000 192 433 0
2020-01-23 13:50:32 GMT 46.701050 1.711188 37,000 192 433 -64
2020-01-23 13:50:28 GMT 46.707916 1.713331 37,000 192 433 0
2020-01-23 13:50:24 GMT 46.716148 1.715858 37,000 193 432 64
2020-01-23 13:50:21 GMT 46.722992 1.717987 37,000 193 432 64
2020-01-23 13:50:18 GMT 46.728058 1.719561 37,000 193 432 0
2020-01-23 13:50:14 GMT 46.734909 1.721695 37,000 193 432 0
2020-01-23 13:50:11 GMT 46.741333 1.723648 37,000 192 429 0
2020-01-23 13:50:08 GMT 46.756741 1.728424 37,000 193 431 0
2020-01-23 13:50:03 GMT 46.756741 1.728424 37,000 193 431 0
2020-01-23 13:49:59 GMT 46.764954 1.730950 37,000 192 430 0
2020-01-23 13:49:56 GMT 46.776993 1.734701 37,000 192 429 0
2020-01-23 13:49:52 GMT 46.776993 1.734701 37,000 193 426 0
2020-01-23 13:49:48 GMT 46.791470 1.739204 37,000 193 426 0
2020-01-23 13:49:45 GMT 46.796860 1.740864 37,000 193 421 64
2020-01-23 13:49:42 GMT 46.802444 1.742606 37,000 193 426 0
2020-01-23 13:49:36 GMT 46.808029 1.744348 37,000 193 425 0
2020-01-23 13:49:32 GMT 46.816700 1.747032 37,000 192 424 -128
2020-01-23 13:49:28 GMT 46.830826 1.751381 37,000 192 423 0
2020-01-23 13:49:21 GMT 46.836533 1.753143 37,000 193 421 64
2020-01-23 13:49:18 GMT 46.852127 1.757950 37,000 192 419 64
2020-01-23 13:49:13 GMT 46.852127 1.757950 37,000 192 420 64
2020-01-23 13:49:09 GMT 46.860458 1.760559 37,000 192 419 64
2020-01-23 13:49:06 GMT 46.867264 1.762703 37,000 192 419 0
2020-01-23 13:49:03 GMT 46.871449 1.763939 37,000 192 416 -128
2020-01-23 13:48:59 GMT 46.879715 1.766464 37,000 193 415 128
2020-01-23 13:48:56 GMT 46.887222 1.768799 37,000 193 415 128
2020-01-23 13:48:53 GMT 46.890812 1.769926 37,000 193 414 128
2020-01-23 13:48:50 GMT 46.896057 1.771545 36,975 193 414 64
2020-01-23 13:48:47 GMT 46.902405 1.773588 37,000 193 413 64
2020-01-23 13:48:43 GMT 46.908737 1.775528 36,975 193 413 128
2020-01-23 13:48:40 GMT 46.915283 1.777588 36,950 193 412 384
2020-01-23 13:48:37 GMT 46.920502 1.779167 36,925 193 412 448
2020-01-23 13:48:31 GMT 46.931305 1.782532 36,900 193 411 448
2020-01-23 13:48:28 GMT 46.936852 1.784292 36,900 193 411 448
2020-01-23 13:48:25 GMT 46.942253 1.785983 36,875 193 411 576
2020-01-23 13:48:22 GMT 46.948563 1.787956 36,825 193 411 512
2020-01-23 13:48:19 GMT 46.953426 1.789433 36,775 193 411 576
2020-01-23 13:48:16 GMT 46.958954 1.791252 36,775 193 411 576
2020-01-23 13:48:12 GMT 46.969162 1.794411 36,725 193 411 576
2020-01-23 13:48:09 GMT 46.972687 1.795509 36,700 193 411 640
2020-01-23 13:48:06 GMT 46.977352 1.796969 36,675 192 409 384
2020-01-23 13:48:03 GMT 46.982895 1.798737 36,625 193 407 384
2020-01-23 13:48:00 GMT 46.988297 1.800385 36,600 193 411 512
2020-01-23 13:47:57 GMT 47.001469 1.804504 36,575 192 409 320
2020-01-23 13:47:49 GMT 47.015526 1.808871 36,550 192 409 320
2020-01-23 13:47:46 GMT 47.015526 1.808871 36,525 192 408 320
2020-01-23 13:47:43 GMT 47.020706 1.810478 36,525 193 407 448
2020-01-23 13:47:40 GMT 47.032146 1.814012 36,400 193 407 768
2020-01-23 13:47:37 GMT 47.032146 1.814012 36,475 193 407 576
2020-01-23 13:47:29 GMT 47.047600 1.818801 36,375 193 407 832
2020-01-23 13:47:25 GMT 47.053326 1.820561 36,350 193 407 832
2020-01-23 13:47:22 GMT 47.059052 1.822392 36,300 193 408 896
2020-01-23 13:47:16 GMT 47.071945 1.826407 36,200 193 409 960
2020-01-23 13:47:13 GMT 47.075809 1.827674 36,150 193 409 960
2020-01-23 13:47:10 GMT 47.091358 1.832534 36,100 193 410 1024
2020-01-23 13:47:06 GMT 47.094131 1.833412 35,925 193 410 1088
2020-01-23 13:47:00 GMT 47.099693 1.835139 35,950 193 410 1152
2020-01-23 13:46:56 GMT 47.107700 1.837675 35,850 193 411 1152
2020-01-23 13:46:53 GMT 47.113266 1.839386 35,800 193 411 1216
2020-01-23 13:46:48 GMT 47.122559 1.842339 35,750 193 412 1216
2020-01-23 13:46:44 GMT 47.128693 1.844261 35,625 193 413 1216
2020-01-23 13:46:41 GMT 47.135239 1.846321 35,525 192 414 1280
2020-01-23 13:46:38 GMT 47.141006 1.848106 35,475 193 415 1280
2020-01-23 13:46:35 GMT 47.145538 1.849480 35,450 193 415 1280
2020-01-23 13:46:32 GMT 47.162071 1.854718 35,275 193 416 1280
2020-01-23 13:46:27 GMT 47.162071 1.854718 35,275 193 417 1216
2020-01-23 13:46:24 GMT 47.169205 1.856964 35,175 193 418 896
2020-01-23 13:46:19 GMT 47.176785 1.859295 35,125 193 418 896
2020-01-23 13:46:15 GMT 47.185822 1.862183 35,025 193 418 1152
2020-01-23 13:46:09 GMT 47.194706 1.864929 34,925 193 419 1024
2020-01-23 13:46:06 GMT 47.201523 1.867058 34,875 193 419 960
2020-01-23 13:46:03 GMT 47.209305 1.869530 34,825 193 419 960
2020-01-23 13:45:57 GMT 47.217453 1.872070 34,750 193 420 1088
2020-01-23 13:45:53 GMT 47.232040 1.876690 34,650 193 420 960
2020-01-23 13:45:50 GMT 47.237206 1.878380 34,600 193 420 960
2020-01-23 13:45:47 GMT 47.237206 1.878380 34,500 193 420 1088
2020-01-23 13:45:43 GMT 47.244049 1.880516 34,525 193 421 1088
2020-01-23 13:45:40 GMT 47.249908 1.882439 34,475 193 421 960
2020-01-23 13:45:36 GMT 47.259087 1.885353 34,400 193 421 960
2020-01-23 13:45:33 GMT 47.273941 1.890060 34,275 193 422 960
2020-01-23 13:45:28 GMT 47.273941 1.890060 34,250 193 422 896
2020-01-23 13:45:24 GMT 47.282913 1.892944 34,175 193 422 896
2020-01-23 13:45:18 GMT 47.292435 1.895966 34,100 193 422 1024
2020-01-23 13:45:14 GMT 47.298935 1.898094 34,050 193 422 1088
2020-01-23 13:45:11 GMT 47.305965 1.900353 33,975 193 423 1216
2020-01-23 13:45:05 GMT 47.319000 1.904438 33,825 193 423 1216
2020-01-23 13:45:02 GMT 47.322601 1.905647 33,800 193 424 1152
2020-01-23 13:44:59 GMT 47.330841 1.908257 33,700 193 424 1088
2020-01-23 13:44:54 GMT 47.338135 1.910565 33,625 193 424 1088
2020-01-23 13:44:51 GMT 47.343719 1.912396 33,575 193 424 1152
2020-01-23 13:44:47 GMT 47.357124 1.916692 33,450 193 425 1088
2020-01-23 13:44:39 GMT 47.367920 1.920135 33,350 193 426 960
2020-01-23 13:44:36 GMT 47.373093 1.921852 33,325 193 426 960
2020-01-23 13:44:33 GMT 47.386551 1.926109 33,250 193 426 960
2020-01-23 13:44:29 GMT 47.386551 1.926109 33,200 193 426 1024
2020-01-23 13:44:26 GMT 47.392738 1.928101 33,150 193 426 1024
2020-01-23 13:44:22 GMT 47.400047 1.930495 32,875 193 426 1024
2020-01-23 13:44:19 GMT 47.404655 1.931974 33,075 193 426 1024
2020-01-23 13:44:14 GMT 47.422951 1.937819 32,875 193 427 1216
2020-01-23 13:44:10 GMT 47.422951 1.937819 32,775 193 427 1472
2020-01-23 13:44:05 GMT 47.433014 1.941078 32,750 193 434 1472
2020-01-23 13:44:02 GMT 47.439571 1.943172 32,675 193 428 1472
2020-01-23 13:43:58 GMT 47.446335 1.945335 32,200 193 429 1536
2020-01-23 13:43:55 GMT 47.454094 1.947820 32,475 193 429 1536
2020-01-23 13:43:52 GMT 47.464008 1.950989 32,350 193 431 1472
2020-01-23 13:43:44 GMT 47.476067 1.954933 32,125 193 434 1472
2020-01-23 13:43:41 GMT 47.485283 1.957890 32,075 193 434 1472
2020-01-23 13:43:33 GMT 47.495060 1.961060 31,775 193 435 1472
2020-01-23 13:43:28 GMT 47.506989 1.964905 30,825 193 436 1408
2020-01-23 13:43:23 GMT 47.515263 1.967539 31,725 193 436 1344
2020-01-23 13:43:20 GMT 47.522156 1.969792 31,650 193 436 1280
2020-01-23 13:43:15 GMT 47.531204 1.972664 31,550 193 437 1280
2020-01-23 13:43:11 GMT 47.539890 1.975497 31,450 193 437 1280
2020-01-23 13:43:08 GMT 47.552879 1.979652 30,075 193 437 1280
2020-01-23 13:43:04 GMT 47.552879 1.979652 30,575 193 437 1280
2020-01-23 13:43:01 GMT 47.559769 1.981905 31,250 193 437 1344
2020-01-23 13:42:57 GMT 47.565914 1.983877 31,125 193 437 1344
2020-01-23 13:42:53 GMT 47.574387 1.986624 30,575 193 439 1536
2020-01-23 13:42:50 GMT 47.579544 1.988251 31,000 193 438 1408
2020-01-23 13:42:47 GMT 47.584488 1.989899 30,825 193 439 1408
2020-01-23 13:42:43 GMT 47.595146 1.993314 30,800 193 439 1536
2020-01-23 13:42:38 GMT 47.603714 1.996061 30,575 193 440 1536
2020-01-23 13:42:34 GMT 47.610855 1.998413 30,075 193 442 1920
2020-01-23 13:42:31 GMT 47.616001 2.000075 30,550 193 441 1728
2020-01-23 13:42:28 GMT 47.629551 2.004441 30,200 193 441 1856
2020-01-23 13:42:25 GMT 47.629551 2.004441 30,325 193 443 1920
2020-01-23 13:42:20 GMT 47.640564 2.008026 30,150 193 444 1920
2020-01-23 13:42:16 GMT 47.647751 2.010357 30,075 193 444 1920
2020-01-23 13:42:12 GMT 47.655621 2.012963 29,900 193 454 1920
2020-01-23 13:42:09 GMT 47.661621 2.014893 29,725 193 447 1920
2020-01-23 13:42:05 GMT 47.669312 2.017433 29,700 193 447 1920
2020-01-23 13:42:00 GMT 47.679016 2.020592 29,550 193 448 1856
2020-01-23 13:41:57 GMT 47.686344 2.022963 29,425 193 450 1920
2020-01-23 13:41:53 GMT 47.693024 2.025124 29,325 193 450 1920
2020-01-23 13:41:50 GMT 47.706081 2.029372 29,150 193 452 1984
2020-01-23 13:41:47 GMT 47.706081 2.029372 29,125 193 453 2048
2020-01-23 13:41:44 GMT 47.710785 2.030960 29,025 193 453 1984
2020-01-23 13:41:40 GMT 47.721039 2.034256 28,725 193 455 1792
2020-01-23 13:41:36 GMT 47.727402 2.036385 28,750 193 455 1792
2020-01-23 13:41:33 GMT 47.733994 2.038513 28,700 193 456 1536
2020-01-23 13:41:28 GMT 47.747002 2.042753 28,525 193 456 1472
2020-01-23 13:41:24 GMT 47.753567 2.044866 28,475 193 457 1408
2020-01-23 13:41:20 GMT 47.761414 2.047440 28,375 193 457 1152
2020-01-23 13:41:16 GMT 47.771721 2.050781 28,250 193 456 1024
2020-01-23 13:41:13 GMT 47.775238 2.051971 28,225 193 452 1152
2020-01-23 13:41:10 GMT 47.784302 2.054924 28,175 193 455 1024
2020-01-23 13:41:07 GMT 47.795013 2.058357 28,100 193 455 1024
2020-01-23 13:40:59 GMT 47.813290 2.064303 27,900 193 454 896
2020-01-23 13:40:52 GMT 47.818222 2.065910 27,900 193 454 896
2020-01-23 13:40:49 GMT 47.825775 2.068382 27,800 193 452 1088
2020-01-23 13:40:46 GMT 47.833961 2.071064 27,825 193 452 1088
2020-01-23 13:40:43 GMT 47.837631 2.072296 27,525 193 451 1152
2020-01-23 13:40:35 GMT 47.860867 2.079867 27,525 193 451 1152
2020-01-23 13:40:28 GMT 47.868828 2.082473 27,425 193 451 1152
2020-01-23 13:40:24 GMT 47.876953 2.085136 26,900 193 447 1088
2020-01-23 13:40:21 GMT 47.881210 2.086510 27,300 193 450 1152
2020-01-23 13:40:16 GMT 47.891964 2.090079 27,175 193 448 1088
2020-01-23 13:40:13 GMT 47.897873 2.092003 27,175 193 449 1088
2020-01-23 13:40:10 GMT 47.913239 2.097051 27,100 193 448 1088
2020-01-23 13:40:06 GMT 47.913239 2.097051 27,050 193 447 1088
2020-01-23 13:39:59 GMT 47.926208 2.101273 26,925 193 444 1024
2020-01-23 13:39:56 GMT 47.933670 2.103745 26,850 193 446 1152
2020-01-23 13:39:51 GMT 47.942734 2.106697 26,775 193 446 1088
2020-01-23 13:39:46 GMT 47.952995 2.110079 26,675 193 445 1024
2020-01-23 13:39:43 GMT 47.959030 2.112053 26,625 193 444 1024
2020-01-23 13:39:39 GMT 47.966858 2.114594 26,575 193 442 1024
2020-01-23 13:39:35 GMT 47.983067 2.119939 26,425 193 443 1024
2020-01-23 13:39:29 GMT 47.987255 2.121277 26,325 193 442 1024
2020-01-23 13:39:25 GMT 47.995869 2.124094 26,325 193 441 1088
2020-01-23 13:39:20 GMT 48.006203 2.127474 26,225 193 440 1152
2020-01-23 13:39:16 GMT 48.012768 2.129657 26,100 193 440 1216
2020-01-23 13:39:12 GMT 48.021706 2.132615 26,050 193 440 1216
2020-01-23 13:39:09 GMT 48.027649 2.134575 26,000 193 439 1216
2020-01-23 13:39:05 GMT 48.043304 2.139728 25,775 193 438 1280
2020-01-23 13:39:01 GMT 48.043304 2.139728 25,725 193 438 1344
2020-01-23 13:38:55 GMT 48.056946 2.144257 25,475 193 435 1088
2020-01-23 13:38:52 GMT 48.059738 2.145218 25,575 193 438 1280
2020-01-23 13:38:47 GMT 48.071007 2.148884 25,525 193 437 1216
2020-01-23 13:38:44 GMT 48.076126 2.150574 25,450 193 435 1088
2020-01-23 13:38:41 GMT 48.082455 2.152686 25,425 193 436 1088
2020-01-23 13:38:37 GMT 48.089905 2.155106 25,375 193 436 1088
2020-01-23 13:38:33 GMT 48.097183 2.157509 25,100 193 433 1280
2020-01-23 13:38:28 GMT 48.108570 2.161278 25,150 193 434 1280
2020-01-23 13:38:25 GMT 48.113663 2.163002 25,125 193 433 1280
2020-01-23 13:38:22 GMT 48.119705 2.164993 25,050 193 433 1280
2020-01-23 13:38:18 GMT 48.127518 2.167617 24,825 193 432 1344
2020-01-23 13:38:15 GMT 48.132778 2.169307 24,925 193 432 1344
2020-01-23 13:38:12 GMT 48.138657 2.171242 24,825 193 432 1344
2020-01-23 13:38:09 GMT 48.146255 2.173782 24,750 193 431 1472
2020-01-23 13:38:06 GMT 48.151886 2.175636 23,975 193 431 1536
2020-01-23 13:38:03 GMT 48.156940 2.177265 24,375 193 432 1984
2020-01-23 13:37:57 GMT 48.167229 2.180714 24,375 193 431 1984
2020-01-23 13:37:54 GMT 48.174454 2.183040 24,325 193 432 1984
2020-01-23 13:37:50 GMT 48.182648 2.185786 24,150 193 432 1664
2020-01-23 13:37:47 GMT 48.188278 2.187617 24,100 193 432 1664
2020-01-23 13:37:42 GMT 48.196465 2.190399 24,000 193 432 1536
2020-01-23 13:37:39 GMT 48.203865 2.192857 23,875 193 431 1536
2020-01-23 13:37:36 GMT 48.209358 2.194664 23,825 193 431 1536
2020-01-23 13:37:32 GMT 48.215973 2.196843 23,750 193 431 1536
2020-01-23 13:37:29 GMT 48.223938 2.199449 23,625 193 430 1536
2020-01-23 13:37:25 GMT 48.231674 2.202055 23,550 193 429 1536
2020-01-23 13:37:21 GMT 48.239059 2.204421 22,775 193 422 1472
2020-01-23 13:37:17 GMT 48.246414 2.206843 23,350 193 428 1536
2020-01-23 13:37:13 GMT 48.255539 2.209914 23,225 193 428 1408
2020-01-23 13:37:07 GMT 48.271736 2.215335 23,075 193 427 1344
2020-01-23 13:37:04 GMT 48.271736 2.215335 22,625 193 425 1408
2020-01-23 13:37:00 GMT 48.284401 2.219672 22,900 193 424 1408
2020-01-23 13:36:54 GMT 48.290359 2.221696 22,800 193 424 1472
2020-01-23 13:36:51 GMT 48.299881 2.224943 22,675 193 423 1472
2020-01-23 13:36:47 GMT 48.304462 2.226538 22,625 193 423 1472
2020-01-23 13:36:44 GMT 48.317276 2.230858 22,475 193 422 1472
2020-01-23 13:36:37 GMT 48.328674 2.234661 22,150 193 419 1472
2020-01-23 13:36:34 GMT 48.335312 2.236845 22,275 193 420 1536
2020-01-23 13:36:28 GMT 48.340256 2.238464 22,125 193 419 1472
2020-01-23 13:36:25 GMT 48.347443 2.240788 22,075 193 419 1472
2020-01-23 13:36:21 GMT 48.362373 2.245837 21,850 194 418 1536
2020-01-23 13:36:16 GMT 48.362373 2.245837 21,900 194 418 1536
2020-01-23 13:36:13 GMT 48.367996 2.247972 21,625 196 418 1600
2020-01-23 13:36:09 GMT 48.377472 2.251916 21,625 196 418 1600
2020-01-23 13:36:06 GMT 48.381363 2.253676 21,600 198 418 1728
2020-01-23 13:36:02 GMT 48.399948 2.262620 21,375 199 417 1856
2020-01-23 13:35:56 GMT 48.399948 2.262620 21,300 199 417 1856
2020-01-23 13:35:53 GMT 48.413677 2.269327 21,050 199 417 2048
2020-01-23 13:35:48 GMT 48.413677 2.269327 20,800 199 417 2048
2020-01-23 13:35:44 GMT 48.422470 2.273677 20,875 199 417 2176
2020-01-23 13:35:41 GMT 48.427048 2.275860 20,750 199 417 2112
2020-01-23 13:35:38 GMT 48.432037 2.278325 20,675 199 417 2112
2020-01-23 13:35:35 GMT 48.438812 2.281635 20,550 199 417 2048
2020-01-23 13:35:32 GMT 48.443935 2.284144 20,500 199 417 1984
2020-01-23 13:35:29 GMT 48.451427 2.287903 20,325 199 416 1856
2020-01-23 13:35:24 GMT 48.462616 2.293326 19,850 198 411 1216
2020-01-23 13:35:18 GMT 48.469711 2.296847 20,050 199 412 1280
2020-01-23 13:35:15 GMT 48.476662 2.300262 19,950 198 414 1536
2020-01-23 13:35:09 GMT 48.484993 2.304310 19,625 199 403 1792
2020-01-23 13:35:06 GMT 48.493141 2.308285 19,750 199 410 1280
2020-01-23 13:35:03 GMT 48.496910 2.310165 19,400 199 408 1408
2020-01-23 13:35:00 GMT 48.502670 2.312974 19,525 199 408 1472
2020-01-23 13:34:55 GMT 48.516788 2.319922 19,400 199 406 1728
2020-01-23 13:34:52 GMT 48.520706 2.321848 19,375 199 405 1728
2020-01-23 13:34:46 GMT 48.527664 2.325299 19,300 199 405 1792
2020-01-23 13:34:43 GMT 48.538109 2.330403 19,125 199 404 1792
2020-01-23 13:34:40 GMT 48.538109 2.330403 19,075 199 403 1792
2020-01-23 13:34:36 GMT 48.550167 2.336329 18,900 199 402 1792
2020-01-23 13:34:30 GMT 48.555267 2.338891 18,750 199 400 1792
2020-01-23 13:34:26 GMT 48.561943 2.342184 18,675 198 395 1984
2020-01-23 13:34:23 GMT 48.572838 2.347533 18,475 199 399 1920
2020-01-23 13:34:17 GMT 48.580032 2.351074 18,325 199 398 1920
2020-01-23 13:34:13 GMT 48.586853 2.354384 18,200 199 397 1920
2020-01-23 13:34:09 GMT 48.591785 2.356856 18,100 199 397 1856
2020-01-23 13:34:06 GMT 48.603981 2.362856 17,975 199 396 1920
2020-01-23 13:34:03 GMT 48.603981 2.362856 17,875 199 396 1920
2020-01-23 13:34:00 GMT 48.608322 2.364948 17,775 199 395 1920
2020-01-23 13:33:57 GMT 48.613358 2.367483 17,700 198 395 1920
2020-01-23 13:33:54 GMT 48.618599 2.370011 17,650 198 395 1984
2020-01-23 13:33:50 GMT 48.625862 2.373553 17,450 197 378 704
2020-01-23 13:33:45 GMT 48.640549 2.380723 17,250 198 390 1408
2020-01-23 13:33:42 GMT 48.640549 2.380723 17,150 198 390 1280
2020-01-23 13:33:39 GMT 48.644714 2.382732 17,175 198 390 1344
2020-01-23 13:33:36 GMT 48.649521 2.385019 17,100 198 389 1280
2020-01-23 13:33:32 GMT 48.656525 2.388400 17,050 198 388 1152
2020-01-23 13:33:29 GMT 48.662842 2.391357 16,975 198 385 1088
2020-01-23 13:33:25 GMT 48.669113 2.394245 16,900 197 382 896
2020-01-23 13:33:21 GMT 48.676044 2.397332 16,850 197 378 704
2020-01-23 13:33:18 GMT 48.679398 2.398778 16,825 196 376 704
2020-01-23 13:33:15 GMT 48.684608 2.401019 16,800 196 373 704
2020-01-23 13:33:12 GMT 48.689896 2.403259 16,750 196 371 704
2020-01-23 13:33:09 GMT 48.695389 2.405513 16,700 205 356 704
2020-01-23 13:33:06 GMT 48.700298 2.407524 16,700 195 366 704
2020-01-23 13:33:02 GMT 48.706348 2.409909 16,625 197 358 768
2020-01-23 13:32:59 GMT 48.711006 2.411860 16,625 197 358 768
2020-01-23 13:32:55 GMT 48.716637 2.414246 16,550 197 358 768
2020-01-23 13:32:52 GMT 48.722736 2.417209 16,525 201 356 768
2020-01-23 13:32:48 GMT 48.728256 2.420584 16,475 204 356 704
2020-01-23 13:32:45 GMT 48.732056 2.423542 16,450 212 356 704
2020-01-23 13:32:42 GMT 48.736908 2.428190 16,425 214 356 704
2020-01-23 13:32:39 GMT 48.745010 2.439035 16,375 223 356 832
2020-01-23 13:32:36 GMT 48.745010 2.439035 16,300 228 355 1152
2020-01-23 13:32:30 GMT 48.752853 2.454722 16,050 240 357 2368
2020-01-23 13:32:24 GMT 48.758835 2.470867 15,900 242 357 2432
2020-01-23 13:32:21 GMT 48.758835 2.470867 15,800 242 358 2560
2020-01-23 13:32:18 GMT 48.760071 2.474389 15,175 242 359 2432
2020-01-23 13:32:15 GMT 48.767807 2.496361 15,325 242 359 2304
2020-01-23 13:32:09 GMT 48.767807 2.496361 15,300 242 359 2304
2020-01-23 13:32:06 GMT 48.770172 2.503004 15,200 242 359 2240
2020-01-23 13:32:03 GMT 48.771744 2.507418 15,150 242 359 2176
2020-01-23 13:32:00 GMT 48.774548 2.515363 14,900 242 358 2112
2020-01-23 13:31:56 GMT 48.780739 2.533071 14,775 243 357 2176
2020-01-23 13:31:49 GMT 48.783096 2.539673 14,575 242 357 2368
2020-01-23 13:31:46 GMT 48.785954 2.547816 14,425 242 357 2432
2020-01-23 13:31:43 GMT 48.790936 2.561983 14,225 242 357 2560
2020-01-23 13:31:39 GMT 48.790936 2.561983 14,175 242 357 2688
2020-01-23 13:31:36 GMT 48.793495 2.569211 13,975 242 358 2624
2020-01-23 13:31:33 GMT 48.795822 2.575871 13,900 242 358 2368
2020-01-23 13:31:29 GMT 48.802048 2.593478 13,700 242 357 1792
2020-01-23 13:31:26 GMT 48.802048 2.593478 13,675 242 356 1408
2020-01-23 13:31:23 GMT 48.804016 2.598971 13,600 242 353 1280
2020-01-23 13:31:19 GMT 48.805923 2.604410 13,575 242 352 1280
2020-01-23 13:31:16 GMT 48.808823 2.612633 13,375 242 348 1600
2020-01-23 13:31:12 GMT 48.811932 2.621468 13,325 243 347 1856
2020-01-23 13:31:09 GMT 48.814178 2.627916 13,250 243 346 2048
2020-01-23 13:31:06 GMT 48.818710 2.640803 13,075 243 345 1984
2020-01-23 13:31:03 GMT 48.821457 2.648621 13,000 242 344 1984
2020-01-23 13:31:00 GMT 48.821457 2.648621 12,925 243 344 1920
2020-01-23 13:30:54 GMT 48.825577 2.660311 12,700 243 340 2048
2020-01-23 13:30:51 GMT 48.827339 2.665413 12,625 243 340 2048
2020-01-23 13:30:48 GMT 48.829559 2.671720 12,550 242 340 2240
2020-01-23 13:30:45 GMT 48.831711 2.677777 12,425 243 339 2496
2020-01-23 13:30:41 GMT 48.835144 2.687636 12,300 243 339 2624
2020-01-23 13:30:37 GMT 48.837349 2.693963 12,100 243 340 2688
2020-01-23 13:30:33 GMT 48.843842 2.712496 11,800 243 340 2496
2020-01-23 13:30:29 GMT 48.843842 2.712496 11,725 243 340 2496
2020-01-23 13:30:23 GMT 48.848335 2.725332 11,425 243 339 2112
2020-01-23 13:30:20 GMT 48.850475 2.731476 11,375 242 338 1920
2020-01-23 13:30:17 GMT 48.852757 2.737909 11,275 243 338 1728
2020-01-23 13:30:14 GMT 48.854851 2.743980 11,225 243 337 1600
2020-01-23 13:30:11 GMT 48.858761 2.755183 11,075 243 333 1536
2020-01-23 13:30:08 GMT 48.861374 2.762569 11,025 243 331 1664
2020-01-23 13:30:05 GMT 48.861374 2.762569 10,975 243 328 1792
2020-01-23 13:30:00 GMT 48.864719 2.772169 10,775 245 292 2112
2020-01-23 13:29:54 GMT 48.869236 2.785106 10,625 243 323 960
2020-01-23 13:29:50 GMT 48.872402 2.794286 10,625 243 319 832
2020-01-23 13:29:47 GMT 48.873596 2.797640 10,600 243 317 832
2020-01-23 13:29:44 GMT 48.875839 2.804119 10,450 243 314 768
2020-01-23 13:29:40 GMT 48.878502 2.811849 10,475 243 309 768
2020-01-23 13:29:37 GMT 48.880508 2.817571 10,425 243 305 832
2020-01-23 13:29:32 GMT 48.886734 2.835811 9,925 243 298 1792
2020-01-23 13:29:27 GMT 48.886734 2.835811 9,725 244 298 2112
2020-01-23 13:29:24 GMT 48.888519 2.841233 10,125 244 297 2048
2020-01-23 13:29:20 GMT 48.890884 2.848278 10,000 244 296 1856
2020-01-23 13:29:17 GMT 48.893490 2.856301 9,725 245 292 2112
2020-01-23 13:29:13 GMT 48.895447 2.862444 9,750 245 292 2112
2020-01-23 13:29:09 GMT 48.897903 2.870178 9,600 246 291 2496
2020-01-23 13:29:04 GMT 48.900604 2.879122 9,325 246 291 2624
2020-01-23 13:29:01 GMT 48.903034 2.886875 9,225 245 292 2624
2020-01-23 13:28:54 GMT 48.906372 2.897362 8,850 244 292 2496
2020-01-23 13:28:51 GMT 48.908249 2.903067 8,850 242 291 2432
2020-01-23 13:28:48 GMT 48.910156 2.908414 8,725 241 290 2560
2020-01-23 13:28:44 GMT 48.913506 2.917015 8,125 233 291 2176
2020-01-23 13:28:38 GMT 48.917221 2.924546 8,350 230 290 2240
2020-01-23 13:28:34 GMT 48.922485 2.932645 8,125 220 289 2752
2020-01-23 13:28:28 GMT 48.932266 2.942168 7,750 202 287 1984
2020-01-23 13:28:24 GMT 48.932266 2.942168 7,750 202 287 1984
2020-01-23 13:28:21 GMT 48.936085 2.944480 7,600 193 283 1792
2020-01-23 13:28:17 GMT 48.940739 2.946577 7,550 193 283 1792
2020-01-23 13:28:13 GMT 48.946884 2.948022 7,400 185 278 1792
2020-01-23 13:28:10 GMT 48.952011 2.948350 7,350 179 276 1856
2020-01-23 13:28:07 GMT 48.954056 2.948167 7,300 178 275 1920
2020-01-23 13:28:03 GMT 48.958942 2.947372 6,875 162 271 3136
2020-01-23 13:28:00 GMT 48.963821 2.945674 6,800 155 272 3072
2020-01-23 13:27:57 GMT 48.966484 2.944408 6,750 159 271 3200
2020-01-23 13:27:52 GMT 48.972977 2.939899 6,450 147 271 2880
2020-01-23 13:27:47 GMT 48.977692 2.935181 6,250 140 270 3008
2020-01-23 13:27:44 GMT 48.981285 2.930531 6,050 122 270 2112
2020-01-23 13:27:39 GMT 48.984684 2.925182 5,675 127 271 2432
2020-01-23 13:27:35 GMT 48.989529 2.914629 5,675 120 270 1920
2020-01-23 13:27:27 GMT 48.992271 2.905378 5,500 102 259 2048
2020-01-23 13:27:24 GMT 48.993347 2.900461 5,300 100 258 2240
2020-01-23 13:27:21 GMT 48.994972 2.889983 4,700 99 256 2496
2020-01-23 13:27:18 GMT 48.994972 2.889983 5,075 100 258 2304
2020-01-23 13:27:13 GMT 48.995956 2.881376 4,975 99 257 2496
2020-01-23 13:27:10 GMT 48.996601 2.875744 4,750 100 255 2560
2020-01-23 13:27:07 GMT 48.997253 2.869889 4,700 100 255 2560
2020-01-23 13:27:02 GMT 48.998466 2.859987 4,475 100 254 2560
2020-01-23 13:26:58 GMT 48.999847 2.848417 4,175 100 253 2496
2020-01-23 13:26:54 GMT 49.000626 2.841726 4,100 100 253 2304
2020-01-23 13:26:51 GMT 49.000626 2.841726 4,050 100 251 2112
2020-01-23 13:26:47 GMT 49.001312 2.835811 3,925 99 250 1728
2020-01-23 13:26:44 GMT 49.002560 2.824498 3,800 99 244 1344
2020-01-23 13:26:37 GMT 49.003445 2.815969 3,700 98 234 1152
2020-01-23 13:26:33 GMT 49.003876 2.811725 3,600 98 233 1152
2020-01-23 13:26:30 GMT 49.004288 2.807289 3,575 97 231 1280
2020-01-23 13:26:26 GMT 49.005074 2.798117 3,425 96 222 832
2020-01-23 13:26:21 GMT 49.006073 2.784400 3,375 86 179 320
2020-01-23 13:26:17 GMT 49.006073 2.784400 3,375 95 211 64
2020-01-23 13:26:13 GMT 49.006332 2.780264 3,350 93 205 256
2020-01-23 13:26:10 GMT 49.006485 2.776513 3,350 91 203 448
2020-01-23 13:26:02 GMT 49.006287 2.764941 3,275 86 194 320
2020-01-23 13:25:59 GMT 49.006191 2.761544 3,275 86 191 256
2020-01-23 13:25:53 GMT 49.005798 2.752146 3,250 86 183 256
2020-01-23 13:25:50 GMT 49.005680 2.749112 3,225 86 180 256
2020-01-23 13:25:47 GMT 49.005589 2.746004 3,200 86 175 384
2020-01-23 13:25:43 GMT 49.005306 2.739282 3,175 86 168 512
2020-01-23 13:25:40 GMT 49.005169 2.735813 3,150 86 167 512
2020-01-23 13:25:37 GMT 49.005028 2.732415 3,125 86 165 512
2020-01-23 13:25:31 GMT 49.004795 2.726705 3,075 86 160 512
2020-01-23 13:25:28 GMT 49.004654 2.722497 3,050 86 157 512
2020-01-23 13:25:21 GMT 49.004375 2.715719 2,950 86 150 896
2020-01-23 13:25:17 GMT 49.004192 2.710515 2,925 86 148 896
2020-01-23 13:25:13 GMT 49.004005 2.706901 2,850 85 146 832
2020-01-23 13:25:09 GMT 49.003784 2.702425 2,800 85 143 896
2020-01-23 13:25:05 GMT 49.003601 2.699538 2,750 85 149 1920
2020-01-23 13:25:00 GMT 49.003235 2.693763 2,675 84 141 1344
2020-01-23 13:24:57 GMT 49.003075 2.690928 2,550 84 142 1600
2020-01-23 13:24:50 GMT 49.002609 2.683338 2,325 84 146 1984
2020-01-23 13:24:47 GMT 49.002514 2.681676 2,150 85 149 1984
2020-01-23 13:24:41 GMT 49.002094 2.674087 2,025 85 150 1856
2020-01-23 13:24:38 GMT 49.001724 2.666931 1,800 85 153 1856
2020-01-23 13:24:31 GMT 49.001633 2.664325 1,775 85 155 1408
2020-01-23 13:24:27 GMT 49.001396 2.659559 1,700 86 153 960
2020-01-23 13:24:21 GMT 49.000992 2.649888 1,575 85 145 896
2020-01-23 13:24:18 GMT 49.000992 2.649888 1,575 85 145 896
2020-01-23 13:24:11 GMT 49.000607 2.643152 1,450 85 141 1664
2020-01-23 13:24:06 GMT 49.000374 2.638670 1,325 84 143 1792
2020-01-23 13:23:58 GMT 48.999802 2.630240 1,125 83 142 1344
2020-01-23 13:23:55 GMT 48.999630 2.627756 1,075 85 141 1216
2020-01-23 13:23:50 GMT 48.999298 2.622282 950 85 140 1344
2020-01-23 13:23:46 GMT 48.999069 2.618143 850 85 139 1664
2020-01-23 13:23:40 GMT 48.998745 2.612650 675 84 140 1792
2020-01-23 13:23:36 GMT 48.998512 2.608241 550 85 142 1856
2020-01-23 13:23:30 GMT 48.998184 2.602603 375 85 144 1728
2020-01-23 13:23:27 GMT 48.998062 2.599886 275 86 146 1408
2020-01-23 13:23:20 GMT 48.997742 2.592703 75 86 147 1472

Making use of Plane Finder data

You are free to use the raw flight data, aircraft information and images provided in this report for your own purposes provided the data is correctly attributed to Plane Finder. We ask that you please credit Plane Finder and link to planefinder.net in close proximity to the content.

Optionally one of the following logos (no smaller then 150x24px) can be used and must link to planefinder.net

Embedding the Plane Finder map

You are welcome to embed the Plane Finder playback map on your website to offer visitors a more interactive experience. We suggest using the following HTML code:

<iframe src="//planefinder.net/data/report/AF104-F-GLZN-7700-squawk-2020-01-23/map" width="800" height="600" seamless="seamless"></iframe>

Where our data comes from

Plane Finder has a global network of data feeds and antenna radars that receive data broadcast directly from aircraft. The primary technologies used are ADS-B and MLAT. We also show feeds from the FAA and a FLARM glider feed.

Click here to find out more about the Plane Finder network.

How we collect our data